Time,TemperatureF,DewpointF,PressureIn,WindDirection,WindDirectionDegrees,WindSpeedMPH,WindSpeedGustMPH,Humidity,HourlyPrecipIn,Conditions,Clouds,dailyrainin,SolarRadiationWatts/m^2,SoftwareType,DateUTC
2013-04-04 00:00:00,32.7,21.5,30.34,South,185,0.0,0.0,63,0.00,,,0.00,0.00,VWS V14.01,2013-04-04 04:00:00,
2013-04-04 00:05:00,32.6,21.8,30.34,South,185,0.0,0.0,64,0.00,,,0.00,0.00,VWS V14.01,2013-04-04 04:05:00,
2013-04-04 00:10:00,32.4,21.6,30.34,South,185,0.0,0.0,64,0.00,,,0.00,0.00,VWS V14.01,2013-04-04 04:10:00,
2013-04-04 00:15:00,32.3,21.1,30.34,South,185,0.0,0.0,63,0.00,,,0.00,0.00,VWS V14.01,2013-04-04 04:15:00,
2013-04-04 00:20:00,32.1,21.3,30.34,South,185,0.0,0.0,64,0.00,,,0.00,0.00,VWS V14.01,2013-04-04 04:20:00,
2013-04-04 00:25:00,32.0,21.6,30.34,South,185,0.0,0.0,65,0.00,,,0.00,0.00,VWS V14.01,2013-04-04 04:25:00,
2013-04-04 00:30:00,31.9,21.5,30.34,South,185,0.0,0.0,65,0.00,,,0.00,0.00,VWS V14.01,2013-04-04 04:30:00,
2013-04-04 00:35:00,31.7,21.3,30.34,South,185,0.0,0.0,65,0.00,,,0.00,0.00,VWS V14.01,2013-04-04 04:35:00,
2013-04-04 00:36:00,31.8,21.4,30.34,South,185,0.0,0.0,65,0.00,,,0.00,0.00,VWS V14.01,2013-04-04 04:36:00,
2013-04-04 00:40:00,31.7,21.3,30.34,South,185,0.0,0.0,65,0.00,,,0.00,0.00,VWS V14.01,2013-04-04 04:40:00,
2013-04-04 00:41:00,31.7,21.3,30.34,South,185,0.0,0.0,65,0.00,,,0.00,0.00,VWS V14.01,2013-04-04 04:41:00,
2013-04-04 00:45:00,31.7,21.3,30.34,South,185,0.0,0.0,65,0.00,,,0.00,0.00,VWS V14.01,2013-04-04 04:45:00,
2013-04-04 00:46:00,31.7,21.3,30.34,South,185,0.0,0.0,65,0.00,,,0.00,0.00,VWS V14.01,2013-04-04 04:46:00,
2013-04-04 00:50:00,31.7,21.3,30.34,South,185,0.0,0.0,65,0.00,,,0.00,0.00,VWS V14.01,2013-04-04 04:50:00,
2013-04-04 00:51:00,31.7,21.3,30.34,South,185,0.0,0.0,65,0.00,,,0.00,0.00,VWS V14.01,2013-04-04 04:51:00,
2013-04-04 00:55:00,31.7,19.8,30.34,South,185,0.0,0.0,61,0.00,,,0.00,0.00,VWS V14.01,2013-04-04 04:55:00,
2013-04-04 00:56:00,31.7,19.8,30.34,South,185,0.0,0.0,61,0.00,,,0.00,0.00,VWS V14.01,2013-04-04 04:56:00,
2013-04-04 01:00:00,31.9,20.0,30.34,South,185,0.0,0.0,61,0.00,,,0.00,0.00,VWS V14.01,2013-04-04 05:00:00,
2013-04-04 01:01:00,31.9,20.4,30.34,South,185,0.0,0.0,62,0.00,,,0.00,0.00,VWS V14.01,2013-04-04 05:01:00,
2013-04-04 01:05:00,32.0,20.5,30.34,South,185,0.0,0.0,62,0.00,,,0.00,0.00,VWS V14.01,2013-04-04 05:05:00,
2013-04-04 01:06:00,32.0,20.5,30.34,South,185,0.0,0.0,62,0.00,,,0.00,0.00,VWS V14.01,2013-04-04 05:06:00,
2013-04-04 01:10:00,32.0,20.5,30.34,South,185,0.0,0.0,62,0.00,,,0.00,0.00,VWS V14.01,2013-04-04 05:10:00,
2013-04-04 01:11:00,32.0,20.5,30.34,South,185,0.0,0.0,62,0.00,,,0.00,0.00,VWS V14.01,2013-04-04 05:11:00,
2013-04-04 01:15:00,32.1,20.2,30.34,South,185,0.0,0.0,61,0.00,,,0.00,0.00,VWS V14.01,2013-04-04 05:15:00,
2013-04-04 01:16:00,32.1,20.2,30.34,South,185,1.0,1.0,61,0.00,,,0.00,0.00,VWS V14.01,2013-04-04 05:16:00,
2013-04-04 01:20:00,32.4,20.1,30.33,South,185,0.0,0.0,60,0.00,,,0.00,0.00,VWS V14.01,2013-04-04 05:20:00,
2013-04-04 01:21:00,32.4,20.1,30.33,South,185,0.0,0.0,60,0.00,,,0.00,0.00,VWS V14.01,2013-04-04 05:21:00,
2013-04-04 01:25:00,32.5,18.6,30.33,South,185,0.0,0.0,56,0.00,,,0.00,0.00,VWS V14.01,2013-04-04 05:25:00,
2013-04-04 01:26:00,32.5,18.6,30.33,South,185,0.0,0.0,56,0.00,,,0.00,0.00,VWS V14.01,2013-04-04 05:26:00,
2013-04-04 01:30:00,32.6,18.7,30.34,South,185,0.0,0.0,56,0.00,,,0.00,0.00,VWS V14.01,2013-04-04 05:30:00,
2013-04-04 01:31:00,32.6,18.7,30.34,South,185,0.0,0.0,56,0.00,,,0.00,0.00,VWS V14.01,2013-04-04 05:31:00,
2013-04-04 01:32:00,32.7,19.6,30.33,South,185,0.0,0.0,58,0.00,,,0.00,0.00,VWS V14.01,2013-04-04 05:32:00,
2013-04-04 01:35:00,32.7,18.3,30.33,South,185,0.0,0.0,55,0.00,,,0.00,0.00,VWS V14.01,2013-04-04 05:35:00,
2013-04-04 01:36:00,32.7,18.3,30.33,South,185,0.0,0.0,55,0.00,,,0.00,0.00,VWS V14.01,2013-04-04 05:36:00,
2013-04-04 01:37:00,32.8,18.4,30.33,South,185,0.0,0.0,55,0.00,,,0.00,0.00,VWS V14.01,2013-04-04 05:37:00,
2013-04-04 01:40:00,32.8,18.8,30.33,South,185,0.0,0.0,56,0.00,,,0.00,0.00,VWS V14.01,2013-04-04 05:40:00,
2013-04-04 01:41:00,32.9,18.9,30.33,South,185,0.0,0.0,56,0.00,,,0.00,0.00,VWS V14.01,2013-04-04 05:41:00,
2013-04-04 01:42:00,32.9,19.4,30.33,South,185,0.0,0.0,57,0.00,,,0.00,0.00,VWS V14.01,2013-04-04 05:42:00,
2013-04-04 01:45:00,32.9,18.5,30.33,South,185,0.0,0.0,55,0.00,,,0.00,0.00,VWS V14.01,2013-04-04 05:45:00,
2013-04-04 01:46:00,32.9,18.9,30.33,South,185,0.0,1.0,56,0.00,,,0.00,0.00,VWS V14.01,2013-04-04 05:46:00,
2013-04-04 01:47:00,33.0,19.0,30.33,South,185,0.0,0.0,56,0.00,,,0.00,0.00,VWS V14.01,2013-04-04 05:47:00,
2013-04-04 01:50:00,33.1,18.7,30.33,South,185,0.0,0.0,55,0.00,,,0.00,0.00,VWS V14.01,2013-04-04 05:50:00,
2013-04-04 01:51:00,33.1,18.7,30.33,South,185,0.0,0.0,55,0.00,,,0.00,0.00,VWS V14.01,2013-04-04 05:51:00,
2013-04-04 01:52:00,33.1,18.7,30.33,South,185,0.0,0.0,55,0.00,,,0.00,0.00,VWS V14.01,2013-04-04 05:52:00,
2013-04-04 01:55:00,33.1,18.7,30.33,South,185,0.0,0.0,55,0.00,,,0.00,0.00,VWS V14.01,2013-04-04 05:55:00,
2013-04-04 01:57:00,33.1,18.7,30.33,South,185,0.0,0.0,55,0.00,,,0.00,0.00,VWS V14.01,2013-04-04 05:57:00,
2013-04-04 02:00:00,33.1,18.3,30.33,South,185,0.0,0.0,54,0.00,,,0.00,0.00,VWS V14.01,2013-04-04 06:00:00,
2013-04-04 02:02:00,33.1,17.8,30.33,South,185,0.0,0.0,53,0.00,,,0.00,0.00,VWS V14.01,2013-04-04 06:02:00,
2013-04-04 02:05:00,33.2,18.4,30.33,South,185,0.0,0.0,54,0.00,,,0.00,0.00,VWS V14.01,2013-04-04 06:05:00,
2013-04-04 02:07:00,33.3,18.0,30.33,South,185,0.0,1.0,53,0.00,,,0.00,0.00,VWS V14.01,2013-04-04 06:07:00,
2013-04-04 02:10:00,33.5,17.3,30.33,South,185,0.0,0.0,51,0.00,,,0.00,0.00,VWS V14.01,2013-04-04 06:10:00,
2013-04-04 02:12:00,33.5,17.3,30.33,South,185,1.0,2.0,51,0.00,,,0.00,0.00,VWS V14.01,2013-04-04 06:12:00,
2013-04-04 02:13:00,33.6,17.4,30.33,South,185,0.0,0.0,51,0.00,,,0.00,0.00,VWS V14.01,2013-04-04 06:13:00,
2013-04-04 02:15:00,33.7,17.5,30.33,South,185,0.0,0.0,51,0.00,,,0.00,0.00,VWS V14.01,2013-04-04 06:15:00,
2013-04-04 02:17:00,33.8,18.0,30.33,South,185,0.0,0.0,52,0.00,,,0.00,0.00,VWS V14.01,2013-04-04 06:17:00,
2013-04-04 02:18:00,33.8,18.0,30.33,South,185,1.0,2.0,52,0.00,,,0.00,0.00,VWS V14.01,2013-04-04 06:18:00,
2013-04-04 02:20:00,33.9,18.1,30.33,South,185,0.0,0.0,52,0.00,,,0.00,0.00,VWS V14.01,2013-04-04 06:20:00,
2013-04-04 02:22:00,33.9,18.1,30.33,South,185,0.0,0.0,52,0.00,,,0.00,0.00,VWS V14.01,2013-04-04 06:22:00,
2013-04-04 02:23:00,33.9,18.1,30.33,South,185,0.0,1.0,52,0.00,,,0.00,0.00,VWS V14.01,2013-04-04 06:23:00,
2013-04-04 02:26:00,33.9,17.7,30.33,South,185,0.0,0.0,51,0.00,,,0.00,0.00,VWS V14.01,2013-04-04 06:26:00,
2013-04-04 02:27:00,33.9,17.7,30.33,South,185,0.0,0.0,51,0.00,,,0.00,0.00,VWS V14.01,2013-04-04 06:27:00,
2013-04-04 02:28:00,33.9,18.1,30.33,South,185,0.0,1.0,52,0.00,,,0.00,0.00,VWS V14.01,2013-04-04 06:28:00,
2013-04-04 02:31:00,33.9,18.1,30.33,South,185,0.0,0.0,52,0.00,,,0.00,0.00,VWS V14.01,2013-04-04 06:31:00,
2013-04-04 02:32:00,33.9,17.7,30.33,South,185,0.0,0.0,51,0.00,,,0.00,0.00,VWS V14.01,2013-04-04 06:32:00,
2013-04-04 02:33:00,33.9,17.7,30.33,South,185,0.0,0.0,51,0.00,,,0.00,0.00,VWS V14.01,2013-04-04 06:33:00,
2013-04-04 02:36:00,34.0,17.8,30.33,South,185,0.0,0.0,51,0.00,,,0.00,0.00,VWS V14.01,2013-04-04 06:36:00,
2013-04-04 02:37:00,34.0,17.3,30.33,South,185,0.0,1.0,50,0.00,,,0.00,0.00,VWS V14.01,2013-04-04 06:37:00,
2013-04-04 02:38:00,34.1,17.4,30.33,South,185,1.0,1.0,50,0.00,,,0.00,0.00,VWS V14.01,2013-04-04 06:38:00,
2013-04-04 02:41:00,34.1,17.4,30.33,South,185,0.0,0.0,50,0.00,,,0.00,0.00,VWS V14.01,2013-04-04 06:41:00,
2013-04-04 02:42:00,34.1,18.3,30.33,South,185,0.0,0.0,52,0.00,,,0.00,0.00,VWS V14.01,2013-04-04 06:42:00,
2013-04-04 02:43:00,34.1,18.3,30.32,South,185,0.0,0.0,52,0.00,,,0.00,0.00,VWS V14.01,2013-04-04 06:43:00,
2013-04-04 02:46:00,34.1,17.4,30.32,South,185,0.0,0.0,50,0.00,,,0.00,0.00,VWS V14.01,2013-04-04 06:46:00,
2013-04-04 02:47:00,34.1,17.9,30.33,South,185,0.0,0.0,51,0.00,,,0.00,0.00,VWS V14.01,2013-04-04 06:47:00,
2013-04-04 02:48:00,34.1,17.9,30.33,South,185,0.0,1.0,51,0.00,,,0.00,0.00,VWS V14.01,2013-04-04 06:48:00,
2013-04-04 02:51:00,34.1,17.4,30.32,South,185,0.0,0.0,50,0.00,,,0.00,0.00,VWS V14.01,2013-04-04 06:51:00,
2013-04-04 02:52:00,34.2,17.5,30.32,South,185,0.0,0.0,50,0.00,,,0.00,0.00,VWS V14.01,2013-04-04 06:52:00,
2013-04-04 02:53:00,34.2,17.5,30.32,South,185,0.0,0.0,50,0.00,,,0.00,0.00,VWS V14.01,2013-04-04 06:53:00,
2013-04-04 02:56:00,34.2,18.0,30.33,South,185,0.0,0.0,51,0.00,,,0.00,0.00,VWS V14.01,2013-04-04 06:56:00,
2013-04-04 02:58:00,34.2,18.0,30.33,South,185,0.0,0.0,51,0.00,,,0.00,0.00,VWS V14.01,2013-04-04 06:58:00,
2013-04-04 03:02:00,34.1,17.4,30.32,South,185,0.0,0.0,50,0.00,,,0.00,0.00,VWS V14.01,2013-04-04 07:02:00,
2013-04-04 03:03:00,34.1,17.9,30.32,South,185,0.0,0.0,51,0.00,,,0.00,0.00,VWS V14.01,2013-04-04 07:03:00,
2013-04-04 03:07:00,34.1,17.4,30.32,South,185,0.0,0.0,50,0.00,,,0.00,0.00,VWS V14.01,2013-04-04 07:07:00,
2013-04-04 03:08:00,34.1,17.4,30.32,South,185,0.0,0.0,50,0.00,,,0.00,0.00,VWS V14.01,2013-04-04 07:08:00,
2013-04-04 03:09:00,34.1,17.9,30.32,South,185,0.0,0.0,51,0.00,,,0.00,0.00,VWS V14.01,2013-04-04 07:09:00,
2013-04-04 03:12:00,34.1,17.9,30.32,South,185,0.0,0.0,51,0.00,,,0.00,0.00,VWS V14.01,2013-04-04 07:12:00,
2013-04-04 03:13:00,34.0,17.3,30.32,South,185,0.0,1.0,50,0.00,,,0.00,0.00,VWS V14.01,2013-04-04 07:13:00,
2013-04-04 03:15:00,34.0,17.3,30.32,South,185,0.0,0.0,50,0.00,,,0.00,0.00,VWS V14.01,2013-04-04 07:15:00,
2013-04-04 03:17:00,34.0,17.3,30.32,South,185,0.0,0.0,50,0.00,,,0.00,0.00,VWS V14.01,2013-04-04 07:17:00,
2013-04-04 03:18:00,34.0,18.2,30.32,South,185,0.0,0.0,52,0.00,,,0.00,0.00,VWS V14.01,2013-04-04 07:18:00,
2013-04-04 03:20:00,34.0,17.3,30.31,South,185,0.0,0.0,50,0.00,,,0.00,0.00,VWS V14.01,2013-04-04 07:20:00,
2013-04-04 03:22:00,34.0,17.8,30.31,South,185,0.0,0.0,51,0.00,,,0.00,0.00,VWS V14.01,2013-04-04 07:22:00,
2013-04-04 03:23:00,34.0,18.2,30.31,South,185,0.0,1.0,52,0.00,,,0.00,0.00,VWS V14.01,2013-04-04 07:23:00,
2013-04-04 03:25:00,33.9,18.1,30.31,South,185,0.0,0.0,52,0.00,,,0.00,0.00,VWS V14.01,2013-04-04 07:25:00,
2013-04-04 03:27:00,33.9,18.1,30.31,South,185,0.0,0.0,52,0.00,,,0.00,0.00,VWS V14.01,2013-04-04 07:27:00,
2013-04-04 03:28:00,33.9,18.6,30.31,South,185,0.0,0.0,53,0.00,,,0.00,0.00,VWS V14.01,2013-04-04 07:28:00,
2013-04-04 03:30:00,33.8,18.0,30.31,South,185,0.0,0.0,52,0.00,,,0.00,0.00,VWS V14.01,2013-04-04 07:30:00,
2013-04-04 03:32:00,33.7,18.4,30.30,South,185,0.0,1.0,53,0.00,,,0.00,0.00,VWS V14.01,2013-04-04 07:32:00,
2013-04-04 03:33:00,33.7,18.4,30.31,South,185,0.0,0.0,53,0.00,,,0.00,0.00,VWS V14.01,2013-04-04 07:33:00,
2013-04-04 03:35:00,33.7,18.4,30.30,South,185,0.0,0.0,53,0.00,,,0.00,0.00,VWS V14.01,2013-04-04 07:35:00,
2013-04-04 03:37:00,33.7,18.4,30.30,South,185,0.0,1.0,53,0.00,,,0.00,0.00,VWS V14.01,2013-04-04 07:37:00,
2013-04-04 03:38:00,33.7,18.4,30.30,South,190,0.0,4.0,53,0.00,,,0.00,0.00,VWS V14.01,2013-04-04 07:38:00,
2013-04-04 03:40:00,33.7,18.0,30.30,South,190,0.0,1.0,52,0.00,,,0.00,0.00,VWS V14.01,2013-04-04 07:40:00,
2013-04-04 03:42:00,33.7,18.4,30.30,South,190,2.0,2.0,53,0.00,,,0.00,0.00,VWS V14.01,2013-04-04 07:42:00,
2013-04-04 03:43:00,33.7,18.0,30.30,South,190,1.0,2.0,52,0.00,,,0.00,0.00,VWS V14.01,2013-04-04 07:43:00,
2013-04-04 03:45:00,33.7,18.0,30.30,South,190,0.0,0.0,52,0.00,,,0.00,0.00,VWS V14.01,2013-04-04 07:45:00,
2013-04-04 03:47:00,33.7,18.0,30.30,SSW,201,3.0,4.0,52,0.00,,,0.00,0.00,VWS V14.01,2013-04-04 07:47:00,
2013-04-04 03:48:00,33.8,17.6,30.30,SSW,201,0.0,3.0,51,0.00,,,0.00,0.00,VWS V14.01,2013-04-04 07:48:00,
2013-04-04 03:49:00,33.8,17.6,30.30,SSW,201,0.0,0.0,51,0.00,,,0.00,0.00,VWS V14.01,2013-04-04 07:49:00,
2013-04-04 03:50:00,33.8,18.0,30.30,SSW,202,0.0,3.0,52,0.00,,,0.00,0.00,VWS V14.01,2013-04-04 07:50:00,
2013-04-04 03:52:00,33.9,17.7,30.30,SSW,202,0.0,0.0,51,0.00,,,0.00,0.00,VWS V14.01,2013-04-04 07:52:00,
2013-04-04 03:53:00,33.9,18.1,30.30,SSW,202,1.0,1.0,52,0.00,,,0.00,0.00,VWS V14.01,2013-04-04 07:53:00,
2013-04-04 03:54:00,33.9,17.7,30.30,SSW,202,1.0,3.0,51,0.00,,,0.00,0.00,VWS V14.01,2013-04-04 07:54:00,
2013-04-04 03:55:00,33.9,17.7,30.30,SSW,202,0.0,1.0,51,0.00,,,0.00,0.00,VWS V14.01,2013-04-04 07:55:00,
2013-04-04 03:57:00,33.9,17.7,30.30,SSW,202,0.0,0.0,51,0.00,,,0.00,0.00,VWS V14.01,2013-04-04 07:57:00,
2013-04-04 03:59:00,33.9,18.1,30.30,SSW,202,0.0,0.0,52,0.00,,,0.00,0.00,VWS V14.01,2013-04-04 07:59:00,
2013-04-04 04:00:00,33.9,18.1,30.30,SSW,202,0.0,2.0,52,0.00,,,0.00,0.00,VWS V14.01,2013-04-04 08:00:00,
2013-04-04 04:02:00,33.9,17.7,30.30,SSW,201,2.0,2.0,51,0.00,,,0.00,0.00,VWS V14.01,2013-04-04 08:02:00,
2013-04-04 04:04:00,33.9,18.1,30.30,SSW,201,0.0,1.0,52,0.00,,,0.00,0.00,VWS V14.01,2013-04-04 08:04:00,
2013-04-04 04:05:00,33.9,18.1,30.29,SSW,201,0.0,1.0,52,0.00,,,0.00,0.00,VWS V14.01,2013-04-04 08:05:00,
2013-04-04 04:07:00,33.9,18.1,30.29,South,183,0.0,1.0,52,0.00,,,0.00,0.00,VWS V14.01,2013-04-04 08:07:00,
2013-04-04 04:09:00,33.9,18.1,30.29,South,184,0.0,3.0,52,0.00,,,0.00,0.00,VWS V14.01,2013-04-04 08:09:00,
2013-04-04 04:10:00,33.8,18.0,30.29,South,184,0.0,1.0,52,0.00,,,0.00,0.00,VWS V14.01,2013-04-04 08:10:00,
2013-04-04 04:13:00,33.8,18.0,30.29,South,184,0.0,0.0,52,0.00,,,0.00,0.00,VWS V14.01,2013-04-04 08:13:00,
2013-04-04 04:14:00,33.8,18.5,30.29,South,184,0.0,0.0,53,0.00,,,0.00,0.00,VWS V14.01,2013-04-04 08:14:00,
2013-04-04 04:15:00,33.8,18.5,30.29,South,184,2.0,2.0,53,0.00,,,0.00,0.00,VWS V14.01,2013-04-04 08:15:00,
2013-04-04 04:18:00,33.7,18.4,30.29,SSW,205,0.0,1.0,53,0.00,,,0.00,0.00,VWS V14.01,2013-04-04 08:18:00,
2013-04-04 04:20:00,33.7,18.4,30.29,SSW,206,2.0,2.0,53,0.00,,,0.00,0.00,VWS V14.01,2013-04-04 08:20:00,
2013-04-04 04:23:00,33.6,18.3,30.29,SSW,205,0.0,0.0,53,0.00,,,0.00,0.00,VWS V14.01,2013-04-04 08:23:00,
2013-04-04 04:25:00,33.6,18.3,30.29,SSW,205,0.0,0.0,53,0.00,,,0.00,0.00,VWS V14.01,2013-04-04 08:25:00,
2013-04-04 04:28:00,33.5,18.6,30.29,SSW,205,0.0,0.0,54,0.00,,,0.00,0.00,VWS V14.01,2013-04-04 08:28:00,
2013-04-04 04:30:00,33.4,18.1,30.29,SSW,205,0.0,0.0,53,0.00,,,0.00,0.00,VWS V14.01,2013-04-04 08:30:00,
2013-04-04 04:33:00,33.4,18.6,30.29,SSW,205,0.0,1.0,54,0.00,,,0.00,0.00,VWS V14.01,2013-04-04 08:33:00,
2013-04-04 04:35:00,33.4,18.6,30.29,SSW,205,4.0,4.0,54,0.00,,,0.00,0.00,VWS V14.01,2013-04-04 08:35:00,
2013-04-04 04:38:00,33.3,18.0,30.28,SSW,205,0.0,4.0,53,0.00,,,0.00,0.00,VWS V14.01,2013-04-04 08:38:00,
2013-04-04 04:40:00,33.3,18.5,30.28,SSW,196,0.0,0.0,54,0.00,,,0.00,0.00,VWS V14.01,2013-04-04 08:40:00,
2013-04-04 04:43:00,33.3,18.5,30.28,SSW,196,0.0,2.0,54,0.00,,,0.00,0.00,VWS V14.01,2013-04-04 08:43:00,
2013-04-04 04:45:00,33.3,18.5,30.28,SSW,196,2.0,2.0,54,0.00,,,0.00,0.00,VWS V14.01,2013-04-04 08:45:00,
2013-04-04 04:46:00,33.3,18.5,30.28,SSW,196,4.0,4.0,54,0.00,,,0.00,0.00,VWS V14.01,2013-04-04 08:46:00,
2013-04-04 04:48:00,33.3,18.5,30.28,SSW,197,3.0,3.0,54,0.00,,,0.00,0.00,VWS V14.01,2013-04-04 08:48:00,
2013-04-04 04:50:00,33.3,18.5,30.28,SSW,197,1.0,4.0,54,0.00,,,0.00,0.00,VWS V14.01,2013-04-04 08:50:00,
2013-04-04 04:51:00,33.3,18.5,30.28,SSW,197,1.0,2.0,54,0.00,,,0.00,0.00,VWS V14.01,2013-04-04 08:51:00,
2013-04-04 04:53:00,33.3,18.0,30.28,SSW,198,2.0,3.0,53,0.00,,,0.00,0.00,VWS V14.01,2013-04-04 08:53:00,
2013-04-04 04:55:00,33.4,18.6,30.28,SSW,198,0.0,2.0,54,0.00,,,0.00,0.00,VWS V14.01,2013-04-04 08:55:00,
2013-04-04 04:56:00,33.4,18.6,30.27,SSW,198,0.0,0.0,54,0.00,,,0.00,0.00,VWS V14.01,2013-04-04 08:56:00,
2013-04-04 04:58:00,33.4,18.6,30.28,SSW,198,0.0,3.0,54,0.00,,,0.00,0.00,VWS V14.01,2013-04-04 08:58:00,
2013-04-04 05:00:00,33.4,18.6,30.28,SSW,198,0.0,2.0,54,0.00,,,0.00,0.00,VWS V14.01,2013-04-04 09:00:00,
2013-04-04 05:01:00,33.3,18.5,30.27,SSW,198,0.0,2.0,54,0.00,,,0.00,0.00,VWS V14.01,2013-04-04 09:01:00,
2013-04-04 05:03:00,33.3,18.5,30.27,SSW,200,1.0,5.0,54,0.00,,,0.00,0.00,VWS V14.01,2013-04-04 09:03:00,
2013-04-04 05:05:00,33.3,18.5,30.27,SSW,200,0.0,3.0,54,0.00,,,0.00,0.00,VWS V14.01,2013-04-04 09:05:00,
2013-04-04 05:06:00,33.3,18.5,30.27,SSW,200,0.0,2.0,54,0.00,,,0.00,0.00,VWS V14.01,2013-04-04 09:06:00,
2013-04-04 05:08:00,33.3,18.5,30.27,SSW,200,0.0,0.0,54,0.00,,,0.00,0.00,VWS V14.01,2013-04-04 09:08:00,
2013-04-04 05:10:00,33.2,18.8,30.27,SSW,200,0.0,1.0,55,0.00,,,0.00,0.00,VWS V14.01,2013-04-04 09:10:00,
2013-04-04 05:12:00,33.2,18.8,30.27,SSW,200,0.0,0.0,55,0.00,,,0.00,0.00,VWS V14.01,2013-04-04 09:12:00,
2013-04-04 05:14:00,33.1,18.7,30.27,SSW,200,0.0,1.0,55,0.00,,,0.00,0.00,VWS V14.01,2013-04-04 09:14:00,
2013-04-04 05:15:00,33.1,18.7,30.27,SSW,200,0.0,0.0,55,0.00,,,0.00,0.00,VWS V14.01,2013-04-04 09:15:00,
2013-04-04 05:17:00,33.0,19.0,30.27,SSW,200,0.0,1.0,56,0.00,,,0.00,0.00,VWS V14.01,2013-04-04 09:17:00,
2013-04-04 05:20:00,32.9,18.5,30.27,SSW,198,0.0,1.0,55,0.00,,,0.00,0.00,VWS V14.01,2013-04-04 09:20:00,
2013-04-04 05:22:00,32.9,18.5,30.27,SSW,198,0.0,1.0,55,0.00,,,0.00,0.00,VWS V14.01,2013-04-04 09:22:00,
2013-04-04 05:25:00,32.9,18.9,30.27,SSW,198,0.0,1.0,56,0.00,,,0.00,0.00,VWS V14.01,2013-04-04 09:25:00,
2013-04-04 05:26:00,32.9,18.9,30.27,SSW,198,0.0,1.0,56,0.00,,,0.00,0.00,VWS V14.01,2013-04-04 09:26:00,
2013-04-04 05:27:00,32.8,18.8,30.27,SSW,198,0.0,2.0,56,0.00,,,0.00,0.00,VWS V14.01,2013-04-04 09:27:00,
2013-04-04 05:30:00,32.8,18.8,30.26,SSW,199,0.0,1.0,56,0.00,,,0.00,0.00,VWS V14.01,2013-04-04 09:30:00,
2013-04-04 05:31:00,32.8,18.8,30.26,SSW,199,1.0,1.0,56,0.00,,,0.00,0.00,VWS V14.01,2013-04-04 09:31:00,
2013-04-04 05:32:00,32.8,18.8,30.26,SSW,198,0.0,0.0,56,0.00,,,0.00,0.00,VWS V14.01,2013-04-04 09:32:00,
2013-04-04 05:35:00,32.7,18.8,30.26,SSW,196,0.0,0.0,56,0.00,,,0.00,0.00,VWS V14.01,2013-04-04 09:35:00,
2013-04-04 05:36:00,32.7,18.8,30.26,SSW,196,0.0,0.0,56,0.00,,,0.00,0.00,VWS V14.01,2013-04-04 09:36:00,
2013-04-04 05:37:00,32.7,19.2,30.26,SSW,196,0.0,2.0,57,0.00,,,0.00,0.00,VWS V14.01,2013-04-04 09:37:00,
2013-04-04 05:40:00,32.6,19.1,30.26,SSW,196,2.0,2.0,57,0.00,,,0.00,0.00,VWS V14.01,2013-04-04 09:40:00,
2013-04-04 05:41:00,32.6,19.1,30.26,SSW,195,4.0,4.0,57,0.00,,,0.00,0.00,VWS V14.01,2013-04-04 09:41:00,
2013-04-04 05:42:00,32.6,18.7,30.26,SSW,194,2.0,3.0,56,0.00,,,0.00,0.00,VWS V14.01,2013-04-04 09:42:00,
2013-04-04 05:45:00,32.6,19.1,30.26,SSW,201,0.0,1.0,57,0.00,,,0.00,0.00,VWS V14.01,2013-04-04 09:45:00,
2013-04-04 05:46:00,32.6,19.1,30.26,SSW,201,0.0,0.0,57,0.00,,,0.00,0.00,VWS V14.01,2013-04-04 09:46:00,
2013-04-04 05:47:00,32.6,19.1,30.26,SSW,201,0.0,0.0,57,0.00,,,0.00,0.00,VWS V14.01,2013-04-04 09:47:00,
2013-04-04 05:50:00,32.5,19.0,30.26,SSW,200,0.0,3.0,57,0.00,,,0.00,0.00,VWS V14.01,2013-04-04 09:50:00,
2013-04-04 05:51:00,32.5,19.0,30.26,SSW,200,0.0,0.0,57,0.00,,,0.00,0.00,VWS V14.01,2013-04-04 09:51:00,
2013-04-04 05:52:00,32.5,19.0,30.26,SSW,200,2.0,2.0,57,0.00,,,0.00,0.00,VWS V14.01,2013-04-04 09:52:00,
2013-04-04 05:55:00,32.5,19.0,30.26,SSW,200,0.0,1.0,57,0.00,,,0.00,0.00,VWS V14.01,2013-04-04 09:55:00,
2013-04-04 05:56:00,32.5,19.0,30.26,SSW,200,0.0,0.0,57,0.00,,,0.00,0.00,VWS V14.01,2013-04-04 09:56:00,
2013-04-04 05:58:00,32.5,19.4,30.26,SSW,200,0.0,0.0,58,0.00,,,0.00,0.00,VWS V14.01,2013-04-04 09:58:00,
2013-04-04 06:00:00,32.4,19.3,30.25,SSW,200,0.0,0.0,58,0.00,,,0.00,0.00,VWS V14.01,2013-04-04 10:00:00,
2013-04-04 06:01:00,32.4,19.3,30.25,SSW,200,0.0,0.0,58,0.00,,,0.00,0.00,VWS V14.01,2013-04-04 10:01:00,
2013-04-04 06:03:00,32.3,19.6,30.26,SSW,200,0.0,0.0,59,0.00,,,0.00,0.00,VWS V14.01,2013-04-04 10:03:00,
2013-04-04 06:05:00,32.3,19.2,30.25,SSW,199,2.0,2.0,58,0.00,,,0.00,0.00,VWS V14.01,2013-04-04 10:05:00,
2013-04-04 06:06:00,32.3,19.2,30.25,SSW,199,2.0,2.0,58,0.00,,,0.00,0.00,VWS V14.01,2013-04-04 10:06:00,
2013-04-04 06:07:00,32.3,19.2,30.25,SSW,199,0.0,0.0,58,0.00,,,0.00,0.00,VWS V14.01,2013-04-04 10:07:00,
2013-04-04 06:08:00,32.3,19.2,30.25,SSW,199,0.0,0.0,58,0.00,,,0.00,0.00,VWS V14.01,2013-04-04 10:08:00,
2013-04-04 06:10:00,32.1,19.0,30.25,SSW,199,0.0,0.0,58,0.00,,,0.00,0.00,VWS V14.01,2013-04-04 10:10:00,
2013-04-04 06:11:00,32.1,19.0,30.25,SSW,199,0.0,0.0,58,0.00,,,0.00,0.00,VWS V14.01,2013-04-04 10:11:00,
2013-04-04 06:12:00,32.1,19.4,30.25,SSW,199,0.0,0.0,59,0.00,,,0.00,0.00,VWS V14.01,2013-04-04 10:12:00,
2013-04-04 06:13:00,32.1,19.4,30.25,SSW,199,0.0,1.0,59,0.00,,,0.00,0.00,VWS V14.01,2013-04-04 10:13:00,
2013-04-04 06:15:00,32.0,19.3,30.25,SSW,199,2.0,2.0,59,0.00,,,0.00,0.00,VWS V14.01,2013-04-04 10:15:00,
2013-04-04 06:16:00,32.0,19.3,30.25,SSW,199,1.0,2.0,59,0.00,,,0.00,0.00,VWS V14.01,2013-04-04 10:16:00,
2013-04-04 06:18:00,32.0,19.3,30.25,SSW,199,0.0,0.0,59,0.00,,,0.00,0.00,VWS V14.01,2013-04-04 10:18:00,
2013-04-04 06:20:00,32.0,19.3,30.25,SSW,199,0.0,0.0,59,0.00,,,0.00,0.00,VWS V14.01,2013-04-04 10:20:00,
2013-04-04 06:21:00,32.0,19.3,30.25,SSW,199,0.0,0.0,59,0.00,,,0.00,0.00,VWS V14.01,2013-04-04 10:21:00,
2013-04-04 06:23:00,31.9,19.2,30.25,SSW,199,0.0,0.0,59,0.00,,,0.00,0.00,VWS V14.01,2013-04-04 10:23:00,
2013-04-04 06:25:00,31.9,19.2,30.25,SSW,199,0.0,0.0,59,0.00,,,0.00,0.00,VWS V14.01,2013-04-04 10:25:00,
2013-04-04 06:26:00,31.9,19.2,30.25,SSW,199,0.0,0.0,59,0.00,,,0.00,0.00,VWS V14.01,2013-04-04 10:26:00,
2013-04-04 06:28:00,31.9,19.2,30.25,SSW,199,0.0,0.0,59,0.00,,,0.00,0.00,VWS V14.01,2013-04-04 10:28:00,
2013-04-04 06:31:00,31.8,19.9,30.25,SSW,199,0.0,0.0,61,0.00,,,0.00,0.00,VWS V14.01,2013-04-04 10:31:00,
2013-04-04 06:33:00,31.7,19.8,30.25,SSW,199,0.0,1.0,61,0.00,,,0.00,0.00,VWS V14.01,2013-04-04 10:33:00,
2013-04-04 06:34:00,31.7,19.8,30.25,SSW,199,0.0,1.0,61,0.00,,,0.00,0.00,VWS V14.01,2013-04-04 10:34:00,
2013-04-04 06:36:00,31.6,19.7,30.25,SSW,199,0.0,0.0,61,0.00,,,0.00,0.00,VWS V14.01,2013-04-04 10:36:00,
2013-04-04 06:37:00,31.6,19.7,30.25,SSW,199,0.0,0.0,61,0.00,,,0.00,0.00,VWS V14.01,2013-04-04 10:37:00,
2013-04-04 06:39:00,31.5,20.0,30.25,SSW,199,0.0,0.0,62,0.00,,,0.00,0.00,VWS V14.01,2013-04-04 10:39:00,
2013-04-04 06:40:00,31.5,20.0,30.25,SSW,199,0.0,0.0,62,0.00,,,0.00,0.00,VWS V14.01,2013-04-04 10:40:00,
2013-04-04 06:41:00,31.4,19.9,30.25,SSW,199,0.0,0.0,62,0.00,,,0.00,0.00,VWS V14.01,2013-04-04 10:41:00,
2013-04-04 06:42:00,31.3,19.8,30.25,SSW,199,0.0,0.0,62,0.00,,,0.00,0.00,VWS V14.01,2013-04-04 10:42:00,
2013-04-04 06:45:00,31.2,20.1,30.25,SSW,199,0.0,0.0,63,0.00,,,0.00,0.00,VWS V14.01,2013-04-04 10:45:00,
2013-04-04 06:46:00,31.1,20.0,30.25,SSW,199,0.0,0.0,63,0.00,,,0.00,0.00,VWS V14.01,2013-04-04 10:46:00,
2013-04-04 06:47:00,31.0,19.9,30.25,SSW,199,0.0,0.0,63,0.00,,,0.00,0.00,VWS V14.01,2013-04-04 10:47:00,
2013-04-04 06:50:00,31.0,20.3,30.24,SSW,199,0.0,0.0,64,0.00,,,0.00,0.00,VWS V14.01,2013-04-04 10:50:00,
2013-04-04 06:51:00,30.9,20.2,30.24,SSW,199,0.0,0.0,64,0.00,,,0.00,0.00,VWS V14.01,2013-04-04 10:51:00,
2013-04-04 06:52:00,30.9,20.2,30.24,SSW,199,0.0,0.0,64,0.00,,,0.00,0.00,VWS V14.01,2013-04-04 10:52:00,
2013-04-04 06:55:00,30.8,20.4,30.24,SSW,199,0.0,0.0,65,0.00,,,0.00,0.00,VWS V14.01,2013-04-04 10:55:00,
2013-04-04 06:56:00,30.7,20.3,30.24,SSW,199,0.0,0.0,65,0.00,,,0.00,0.00,VWS V14.01,2013-04-04 10:56:00,
2013-04-04 06:57:00,30.7,20.3,30.24,SSW,199,0.0,0.0,65,0.00,,,0.00,0.00,VWS V14.01,2013-04-04 10:57:00,
2013-04-04 07:00:00,30.6,20.2,30.24,SSW,199,0.0,0.0,65,0.00,,,0.00,0.00,VWS V14.01,2013-04-04 11:00:00,
2013-04-04 07:02:00,30.6,20.6,30.24,SSW,199,0.0,0.0,66,0.00,,,0.00,0.00,VWS V14.01,2013-04-04 11:02:00,
2013-04-04 07:05:00,30.5,20.5,30.24,SSW,199,0.0,0.0,66,0.00,,,0.00,0.00,VWS V14.01,2013-04-04 11:05:00,
2013-04-04 07:06:00,30.6,20.6,30.24,SSW,199,0.0,0.0,66,0.00,,,0.00,0.00,VWS V14.01,2013-04-04 11:06:00,
2013-04-04 07:07:00,30.5,20.5,30.24,SSW,199,0.0,0.0,66,0.00,,,0.00,0.00,VWS V14.01,2013-04-04 11:07:00,
2013-04-04 07:10:00,30.5,20.5,30.24,SSW,199,0.0,1.0,66,0.00,,,0.00,0.00,VWS V14.01,2013-04-04 11:10:00,
2013-04-04 07:11:00,30.5,20.5,30.24,SSW,199,0.0,1.0,66,0.00,,,0.00,0.00,VWS V14.01,2013-04-04 11:11:00,
2013-04-04 07:12:00,30.5,20.5,30.24,SSW,199,0.0,0.0,66,0.00,,,0.00,0.00,VWS V14.01,2013-04-04 11:12:00,
2013-04-04 07:15:00,30.5,20.9,30.24,SSW,199,0.0,0.0,67,0.00,,,0.00,0.00,VWS V14.01,2013-04-04 11:15:00,
2013-04-04 07:16:00,30.5,20.9,30.24,SSW,199,0.0,0.0,67,0.00,,,0.00,0.00,VWS V14.01,2013-04-04 11:16:00,
2013-04-04 07:17:00,30.5,20.9,30.24,SSW,199,0.0,0.0,67,0.00,,,0.00,0.00,VWS V14.01,2013-04-04 11:17:00,
2013-04-04 07:20:00,30.4,20.8,30.24,SSW,199,0.0,0.0,67,0.00,,,0.00,0.00,VWS V14.01,2013-04-04 11:20:00,
2013-04-04 07:21:00,30.4,20.8,30.24,SSW,199,0.0,0.0,67,0.00,,,0.00,0.00,VWS V14.01,2013-04-04 11:21:00,
2013-04-04 07:22:00,30.4,20.8,30.24,SSW,199,0.0,0.0,67,0.00,,,0.00,0.00,VWS V14.01,2013-04-04 11:22:00,
2013-04-04 07:25:00,30.3,21.0,30.24,SSW,199,0.0,0.0,68,0.00,,,0.00,0.00,VWS V14.01,2013-04-04 11:25:00,
2013-04-04 07:26:00,30.3,21.0,30.24,SSW,199,0.0,0.0,68,0.00,,,0.00,0.00,VWS V14.01,2013-04-04 11:26:00,
2013-04-04 07:27:00,30.3,21.0,30.24,SSW,199,0.0,0.0,68,0.00,,,0.00,0.00,VWS V14.01,2013-04-04 11:27:00,
2013-04-04 07:30:00,30.3,21.0,30.24,SSW,199,0.0,0.0,68,0.00,,,0.00,0.00,VWS V14.01,2013-04-04 11:30:00,
2013-04-04 07:31:00,30.3,21.4,30.24,SSW,199,0.0,0.0,69,0.00,,,0.00,0.00,VWS V14.01,2013-04-04 11:31:00,
2013-04-04 07:32:00,30.2,21.3,30.24,SSW,199,0.0,0.0,69,0.00,,,0.00,0.00,VWS V14.01,2013-04-04 11:32:00,
2013-04-04 07:33:00,30.2,21.3,30.24,SSW,199,0.0,0.0,69,0.00,,,0.00,0.00,VWS V14.01,2013-04-04 11:33:00,
2013-04-04 07:36:00,30.2,21.3,30.24,SSW,199,0.0,0.0,69,0.00,,,0.00,0.00,VWS V14.01,2013-04-04 11:36:00,
2013-04-04 07:37:00,30.2,21.3,30.24,SSW,199,0.0,0.0,69,0.00,,,0.00,0.00,VWS V14.01,2013-04-04 11:37:00,
2013-04-04 07:38:00,30.1,21.2,30.24,SSW,199,0.0,0.0,69,0.00,,,0.00,0.00,VWS V14.01,2013-04-04 11:38:00,
2013-04-04 07:42:00,30.1,20.8,30.24,SSW,199,0.0,0.0,68,0.00,,,0.00,0.00,VWS V14.01,2013-04-04 11:42:00,
2013-04-04 07:43:00,30.1,21.2,30.24,SSW,199,0.0,0.0,69,0.00,,,0.00,0.00,VWS V14.01,2013-04-04 11:43:00,
2013-04-04 07:47:00,30.1,20.8,30.24,SSW,199,0.0,1.0,68,0.00,,,0.00,0.00,VWS V14.01,2013-04-04 11:47:00,
2013-04-04 07:48:00,30.1,20.5,30.24,SSW,199,0.0,0.0,67,0.00,,,0.00,0.00,VWS V14.01,2013-04-04 11:48:00,
2013-04-04 07:52:00,30.2,20.9,30.24,SSW,199,0.0,0.0,68,0.00,,,0.00,0.00,VWS V14.01,2013-04-04 11:52:00,
2013-04-04 07:53:00,30.2,20.9,30.24,SSW,199,0.0,0.0,68,0.00,,,0.00,0.00,VWS V14.01,2013-04-04 11:53:00,
2013-04-04 07:57:00,30.2,21.3,30.24,SSW,199,0.0,0.0,69,0.00,,,0.00,0.00,VWS V14.01,2013-04-04 11:57:00,
2013-04-04 07:59:00,30.2,21.3,30.24,SSW,199,0.0,0.0,69,0.00,,,0.00,0.00,VWS V14.01,2013-04-04 11:59:00,
2013-04-04 08:02:00,30.1,21.2,30.24,SSW,199,0.0,1.0,69,0.00,,,0.00,0.00,VWS V14.01,2013-04-04 12:02:00,
2013-04-04 08:04:00,30.1,21.2,30.24,SSW,199,0.0,0.0,69,0.00,,,0.00,0.00,VWS V14.01,2013-04-04 12:04:00,
2013-04-04 08:07:00,30.1,21.2,30.24,SSW,199,0.0,0.0,69,0.00,,,0.00,0.00,VWS V14.01,2013-04-04 12:07:00,
2013-04-04 08:09:00,30.1,21.2,30.24,SSW,199,0.0,0.0,69,0.00,,,0.00,0.00,VWS V14.01,2013-04-04 12:09:00,
2013-04-04 08:12:00,30.2,21.6,30.24,SSW,199,0.0,0.0,70,0.00,,,0.00,0.00,VWS V14.01,2013-04-04 12:12:00,
2013-04-04 08:14:00,30.2,21.6,30.24,SSW,199,0.0,0.0,70,0.00,,,0.00,0.00,VWS V14.01,2013-04-04 12:14:00,
2013-04-04 08:15:00,30.2,21.6,30.24,SSW,199,0.0,0.0,70,0.00,,,0.00,0.00,VWS V14.01,2013-04-04 12:15:00,
2013-04-04 08:17:00,30.2,21.3,30.24,SSW,199,0.0,0.0,69,0.00,,,0.00,0.00,VWS V14.01,2013-04-04 12:17:00,
2013-04-04 08:20:00,30.4,21.5,30.24,SSW,199,0.0,0.0,69,0.00,,,0.00,0.00,VWS V14.01,2013-04-04 12:20:00,
2013-04-04 08:22:00,30.5,21.9,30.24,SSW,199,0.0,0.0,70,0.00,,,0.00,0.00,VWS V14.01,2013-04-04 12:22:00,
2013-04-04 08:25:00,30.5,22.2,30.23,SSW,199,2.0,2.0,71,0.00,,,0.00,0.00,VWS V14.01,2013-04-04 12:25:00,
2013-04-04 08:27:00,30.6,21.6,30.24,SSW,199,1.0,1.0,69,0.00,,,0.00,0.00,VWS V14.01,2013-04-04 12:27:00,
2013-04-04 08:28:00,30.7,21.8,30.24,SSW,199,0.0,1.0,69,0.00,,,0.00,0.00,VWS V14.01,2013-04-04 12:28:00,
2013-04-04 08:30:00,30.8,21.9,30.24,SSW,199,0.0,0.0,69,0.00,,,0.00,0.00,VWS V14.01,2013-04-04 12:30:00,
2013-04-04 08:32:00,31.1,21.4,30.23,SSW,199,1.0,3.0,67,0.00,,,0.00,0.00,VWS V14.01,2013-04-04 12:32:00,
2013-04-04 08:33:00,31.1,21.4,30.23,SSW,199,2.0,2.0,67,0.00,,,0.00,0.00,VWS V14.01,2013-04-04 12:33:00,
2013-04-04 08:35:00,31.2,21.5,30.23,SSW,199,0.0,0.0,67,0.00,,,0.00,0.00,VWS V14.01,2013-04-04 12:35:00,
2013-04-04 08:37:00,31.4,21.7,30.23,SSW,199,0.0,2.0,67,0.00,,,0.00,0.00,VWS V14.01,2013-04-04 12:37:00,
2013-04-04 08:38:00,31.4,21.7,30.23,SSW,199,0.0,1.0,67,0.00,,,0.00,0.00,VWS V14.01,2013-04-04 12:38:00,
2013-04-04 08:40:00,31.5,21.8,30.23,SSW,199,0.0,0.0,67,0.00,,,0.00,0.00,VWS V14.01,2013-04-04 12:40:00,
2013-04-04 08:42:00,31.7,21.7,30.23,SSW,202,4.0,4.0,66,0.00,,,0.00,0.00,VWS V14.01,2013-04-04 12:42:00,
2013-04-04 08:43:00,31.8,21.8,30.23,SSW,202,0.0,4.0,66,0.00,,,0.00,0.00,VWS V14.01,2013-04-04 12:43:00,
2013-04-04 08:45:00,32.0,21.6,30.23,SSW,202,0.0,1.0,65,0.00,,,0.00,0.00,VWS V14.01,2013-04-04 12:45:00,
2013-04-04 08:48:00,32.2,21.4,30.23,SSW,202,0.0,4.0,64,0.00,,,0.00,0.00,VWS V14.01,2013-04-04 12:48:00,
2013-04-04 08:50:00,32.3,21.1,30.23,SSW,202,1.0,1.0,63,0.00,,,0.00,0.00,VWS V14.01,2013-04-04 12:50:00,
2013-04-04 08:53:00,32.5,21.7,30.23,SSW,202,1.0,1.0,64,0.00,,,0.00,0.00,VWS V14.01,2013-04-04 12:53:00,
2013-04-04 08:54:00,32.5,21.7,30.23,SSW,204,1.0,3.0,64,0.00,,,0.00,0.00,VWS V14.01,2013-04-04 12:54:00,
2013-04-04 08:55:00,32.6,21.4,30.23,SSW,205,3.0,3.0,63,0.00,,,0.00,0.00,VWS V14.01,2013-04-04 12:55:00,
2013-04-04 08:58:00,32.7,21.1,30.23,SSW,208,0.0,2.0,62,0.00,,,0.00,0.00,VWS V14.01,2013-04-04 12:58:00,
2013-04-04 08:59:00,32.7,21.1,30.23,SSW,208,0.0,2.0,62,0.00,,,0.00,0.00,VWS V14.01,2013-04-04 12:59:00,
2013-04-04 09:00:00,32.8,21.2,30.23,SSW,207,3.0,4.0,62,0.00,,,0.00,0.00,VWS V14.01,2013-04-04 13:00:00,
2013-04-04 09:03:00,33.0,21.4,30.23,SW,225,3.0,4.0,62,0.00,,,0.00,0.00,VWS V14.01,2013-04-04 13:03:00,
2013-04-04 09:04:00,33.0,21.4,30.23,SW,225,5.0,5.0,62,0.00,,,0.00,0.00,VWS V14.01,2013-04-04 13:04:00,
2013-04-04 09:05:00,33.1,21.1,30.23,SW,223,2.0,4.0,61,0.00,,,0.00,0.00,VWS V14.01,2013-04-04 13:05:00,
2013-04-04 09:06:00,33.0,21.0,30.23,SW,223,1.0,2.0,61,0.00,,,0.00,0.00,VWS V14.01,2013-04-04 13:06:00,
2013-04-04 09:08:00,33.2,21.6,30.23,SW,223,2.0,3.0,62,0.00,,,0.00,0.00,VWS V14.01,2013-04-04 13:08:00,
2013-04-04 09:09:00,33.3,21.7,30.23,SW,223,3.0,4.0,62,0.00,,,0.00,0.00,VWS V14.01,2013-04-04 13:09:00,
2013-04-04 09:10:00,33.3,21.3,30.23,SW,229,0.0,0.0,61,0.00,,,0.00,0.00,VWS V14.01,2013-04-04 13:10:00,
2013-04-04 09:11:00,33.4,21.8,30.23,SW,229,0.0,0.0,62,0.00,,,0.00,0.00,VWS V14.01,2013-04-04 13:11:00,
2013-04-04 09:13:00,33.6,21.6,30.23,SW,225,3.0,4.0,61,0.00,,,0.00,0.00,VWS V14.01,2013-04-04 13:13:00,
2013-04-04 09:14:00,33.6,21.6,30.23,SW,225,1.0,3.0,61,0.00,,,0.00,0.00,VWS V14.01,2013-04-04 13:14:00,
2013-04-04 09:15:00,33.7,21.7,30.23,SW,226,6.0,6.0,61,0.00,,,0.00,0.00,VWS V14.01,2013-04-04 13:15:00,
2013-04-04 09:16:00,33.7,21.3,30.23,SW,225,4.0,7.0,60,0.00,,,0.00,0.00,VWS V14.01,2013-04-04 13:16:00,
2013-04-04 09:18:00,33.9,21.1,30.23,SW,226,5.0,7.0,59,0.00,,,0.00,0.00,VWS V14.01,2013-04-04 13:18:00,
2013-04-04 09:19:00,34.0,21.2,30.23,SW,223,6.0,6.0,59,0.00,,,0.00,0.00,VWS V14.01,2013-04-04 13:19:00,
2013-04-04 09:20:00,34.1,21.3,30.22,SW,223,4.0,4.0,59,0.00,,,0.00,0.00,VWS V14.01,2013-04-04 13:20:00,
2013-04-04 09:22:00,34.2,21.0,30.22,SW,223,0.0,0.0,58,0.00,,,0.00,0.00,VWS V14.01,2013-04-04 13:22:00,
2013-04-04 09:23:00,34.4,21.6,30.22,SW,223,3.0,4.0,59,0.00,,,0.00,0.00,VWS V14.01,2013-04-04 13:23:00,
2013-04-04 09:24:00,34.5,21.3,30.22,SW,223,3.0,5.0,58,0.00,,,0.00,0.00,VWS V14.01,2013-04-04 13:24:00,
2013-04-04 09:25:00,34.6,21.0,30.23,SW,221,3.0,4.0,57,0.00,,,0.00,0.00,VWS V14.01,2013-04-04 13:25:00,
2013-04-04 09:27:00,34.7,21.0,30.23,SW,221,3.0,4.0,57,0.00,,,0.00,0.00,VWS V14.01,2013-04-04 13:27:00,
2013-04-04 09:29:00,34.9,21.2,30.22,SW,221,2.0,4.0,57,0.00,,,0.00,0.00,VWS V14.01,2013-04-04 13:29:00,
2013-04-04 09:31:00,35.0,20.9,30.22,SW,221,3.0,4.0,56,0.00,,,0.00,0.00,VWS V14.01,2013-04-04 13:31:00,
2013-04-04 09:32:00,35.0,20.9,30.22,SW,221,1.0,2.0,56,0.00,,,0.00,0.00,VWS V14.01,2013-04-04 13:32:00,
2013-04-04 09:34:00,35.2,21.1,30.22,SW,221,1.0,2.0,56,0.00,,,0.00,0.00,VWS V14.01,2013-04-04 13:34:00,
2013-04-04 09:36:00,35.3,21.2,30.22,SW,219,2.0,6.0,56,0.00,,,0.00,0.00,VWS V14.01,2013-04-04 13:36:00,
2013-04-04 09:37:00,35.5,21.4,30.22,SW,220,4.0,4.0,56,0.00,,,0.00,0.00,VWS V14.01,2013-04-04 13:37:00,
2013-04-04 09:39:00,35.6,21.0,30.22,SSW,211,3.0,5.0,55,0.00,,,0.00,0.00,VWS V14.01,2013-04-04 13:39:00,
2013-04-04 09:40:00,35.6,21.0,30.22,SSW,212,0.0,3.0,55,0.00,,,0.00,0.00,VWS V14.01,2013-04-04 13:40:00,
2013-04-04 09:41:00,35.7,21.6,30.22,SW,214,4.0,7.0,56,0.00,,,0.00,0.00,VWS V14.01,2013-04-04 13:41:00,
2013-04-04 09:42:00,35.8,20.8,30.22,SW,225,4.0,6.0,54,0.00,,,0.00,0.00,VWS V14.01,2013-04-04 13:42:00,
2013-04-04 09:44:00,36.0,21.4,30.22,SW,224,3.0,5.0,55,0.00,,,0.00,0.00,VWS V14.01,2013-04-04 13:44:00,
2013-04-04 09:45:00,36.0,21.4,30.22,SW,224,3.0,4.0,55,0.00,,,0.00,0.00,VWS V14.01,2013-04-04 13:45:00,
2013-04-04 09:46:00,36.1,21.5,30.22,SW,224,1.0,2.0,55,0.00,,,0.00,0.00,VWS V14.01,2013-04-04 13:46:00,
2013-04-04 09:47:00,36.2,21.6,30.22,SW,225,4.0,4.0,55,0.00,,,0.00,0.00,VWS V14.01,2013-04-04 13:47:00,
2013-04-04 09:49:00,36.4,20.9,30.21,SW,223,3.0,4.0,53,0.00,,,0.00,0.00,VWS V14.01,2013-04-04 13:49:00,
2013-04-04 09:50:00,36.5,21.5,30.21,SW,223,1.0,4.0,54,0.00,,,0.00,0.00,VWS V14.01,2013-04-04 13:50:00,
2013-04-04 09:51:00,36.6,22.0,30.21,SW,224,3.0,3.0,55,0.00,,,0.00,0.00,VWS V14.01,2013-04-04 13:51:00,
2013-04-04 09:53:00,36.8,21.7,30.21,SW,219,4.0,5.0,54,0.00,,,0.00,0.00,VWS V14.01,2013-04-04 13:53:00,
2013-04-04 09:54:00,37.0,21.9,30.21,WSW,240,0.0,2.0,54,0.00,,,0.00,0.00,VWS V14.01,2013-04-04 13:54:00,
2013-04-04 09:55:00,37.0,21.9,30.21,WSW,238,0.0,3.0,54,0.00,,,0.00,0.00,VWS V14.01,2013-04-04 13:55:00,
2013-04-04 09:56:00,37.1,22.0,30.21,WSW,238,5.0,6.0,54,0.00,,,0.00,0.00,VWS V14.01,2013-04-04 13:56:00,
2013-04-04 09:58:00,37.4,21.4,30.21,SW,228,3.0,7.0,52,0.00,,,0.00,0.00,VWS V14.01,2013-04-04 13:58:00,
2013-04-04 10:00:00,37.5,21.5,30.21,WSW,240,4.0,7.0,52,0.00,,,0.00,0.00,VWS V14.01,2013-04-04 14:00:00,
2013-04-04 10:02:00,37.7,21.7,30.21,SW,236,3.0,7.0,52,0.00,,,0.00,0.00,VWS V14.01,2013-04-04 14:02:00,
2013-04-04 10:03:00,37.9,21.9,30.21,SW,223,5.0,6.0,52,0.00,,,0.00,0.00,VWS V14.01,2013-04-04 14:03:00,
2013-04-04 10:05:00,38.0,21.0,30.20,SW,227,3.0,6.0,50,0.00,,,0.00,0.00,VWS V14.01,2013-04-04 14:05:00,
2013-04-04 10:06:00,38.0,21.0,30.20,SW,220,4.0,4.0,50,0.00,,,0.00,0.00,VWS V14.01,2013-04-04 14:06:00,
2013-04-04 10:07:00,38.1,21.1,30.20,SSW,200,0.0,7.0,50,0.00,,,0.00,0.00,VWS V14.01,2013-04-04 14:07:00,
2013-04-04 10:08:00,38.2,21.7,30.20,SSW,201,2.0,2.0,51,0.00,,,0.00,0.00,VWS V14.01,2013-04-04 14:08:00,
2013-04-04 10:10:00,38.4,21.9,30.20,SSW,209,2.0,2.0,51,0.00,,,0.00,0.00,VWS V14.01,2013-04-04 14:10:00,
2013-04-04 10:11:00,38.8,22.2,30.20,SSW,209,5.0,6.0,51,0.00,,,0.00,0.00,VWS V14.01,2013-04-04 14:11:00,
2013-04-04 10:12:00,38.9,21.9,30.20,SW,227,4.0,5.0,50,0.00,,,0.00,0.00,VWS V14.01,2013-04-04 14:12:00,
2013-04-04 10:14:00,39.1,21.6,30.20,SW,224,4.0,5.0,49,0.00,,,0.00,0.00,VWS V14.01,2013-04-04 14:14:00,
2013-04-04 10:15:00,39.1,21.1,30.20,SW,225,5.0,5.0,48,0.00,,,0.00,0.00,VWS V14.01,2013-04-04 14:15:00,
2013-04-04 10:17:00,39.2,21.2,30.20,SW,225,4.0,4.0,48,0.00,,,0.00,0.00,VWS V14.01,2013-04-04 14:17:00,
2013-04-04 10:19:00,39.4,21.4,30.20,SW,234,2.0,4.0,48,0.00,,,0.00,0.00,VWS V14.01,2013-04-04 14:19:00,
2013-04-04 10:20:00,39.4,21.4,30.20,SW,231,3.0,3.0,48,0.00,,,0.00,0.00,VWS V14.01,2013-04-04 14:20:00,
2013-04-04 10:22:00,39.6,21.5,30.20,SSW,207,4.0,4.0,48,0.00,,,0.00,0.00,VWS V14.01,2013-04-04 14:22:00,
2013-04-04 10:24:00,39.8,21.2,30.20,SW,226,6.0,7.0,47,0.00,,,0.00,0.00,VWS V14.01,2013-04-04 14:24:00,
2013-04-04 10:25:00,39.8,21.2,30.20,SW,230,3.0,6.0,47,0.00,,,0.00,0.00,VWS V14.01,2013-04-04 14:25:00,
2013-04-04 10:27:00,39.9,21.8,30.19,SW,229,2.0,3.0,48,0.00,,,0.00,0.00,VWS V14.01,2013-04-04 14:27:00,
2013-04-04 10:29:00,40.2,21.1,30.20,SSW,212,4.0,4.0,46,0.00,,,0.00,0.00,VWS V14.01,2013-04-04 14:29:00,
2013-04-04 10:30:00,40.2,21.6,30.20,SSW,212,1.0,4.0,47,0.00,,,0.00,0.00,VWS V14.01,2013-04-04 14:30:00,
2013-04-04 10:32:00,40.5,21.4,30.20,SSW,213,0.0,1.0,46,0.00,,,0.00,0.00,VWS V14.01,2013-04-04 14:32:00,
2013-04-04 10:34:00,40.8,21.6,30.20,West,263,3.0,3.0,46,0.00,,,0.00,0.00,VWS V14.01,2013-04-04 14:34:00,
2013-04-04 10:35:00,40.9,21.7,30.20,SW,233,5.0,5.0,46,0.00,,,0.00,0.00,VWS V14.01,2013-04-04 14:35:00,
2013-04-04 10:37:00,40.9,20.7,30.19,SW,217,5.0,6.0,44,0.00,,,0.00,0.00,VWS V14.01,2013-04-04 14:37:00,
2013-04-04 10:40:00,41.1,21.9,30.19,SW,217,5.0,5.0,46,0.00,,,0.00,0.00,VWS V14.01,2013-04-04 14:40:00,
2013-04-04 10:42:00,41.4,21.1,30.19,West,261,3.0,3.0,44,0.00,,,0.00,0.00,VWS V14.01,2013-04-04 14:42:00,
2013-04-04 10:45:00,41.8,21.5,30.19,SSW,207,1.0,4.0,44,0.00,,,0.00,0.00,VWS V14.01,2013-04-04 14:45:00,
2013-04-04 10:47:00,42.0,21.1,30.19,SSW,209,2.0,2.0,43,0.00,,,0.00,0.00,VWS V14.01,2013-04-04 14:47:00,
2013-04-04 10:48:00,42.0,21.1,30.19,SSW,209,0.0,2.0,43,0.00,,,0.00,0.00,VWS V14.01,2013-04-04 14:48:00,
2013-04-04 10:50:00,42.4,22.6,30.19,SW,224,3.0,5.0,45,0.00,,,0.00,0.00,VWS V14.01,2013-04-04 14:50:00,
2013-04-04 10:52:00,42.7,21.2,30.18,WSW,240,3.0,3.0,42,0.00,,,0.00,0.00,VWS V14.01,2013-04-04 14:52:00,
2013-04-04 10:53:00,42.7,21.2,30.18,WSW,240,2.0,3.0,42,0.00,,,0.00,0.00,VWS V14.01,2013-04-04 14:53:00,
2013-04-04 10:55:00,42.8,21.9,30.18,WSW,240,3.0,4.0,43,0.00,,,0.00,0.00,VWS V14.01,2013-04-04 14:55:00,
2013-04-04 10:57:00,43.1,21.6,30.18,WSW,243,3.0,6.0,42,0.00,,,0.00,0.00,VWS V14.01,2013-04-04 14:57:00,
2013-04-04 10:58:00,43.2,21.7,30.18,WSW,242,6.0,6.0,42,0.00,,,0.00,0.00,VWS V14.01,2013-04-04 14:58:00,
2013-04-04 11:00:00,43.2,21.1,30.18,SW,227,5.0,5.0,41,0.00,,,0.00,0.00,VWS V14.01,2013-04-04 15:00:00,
2013-04-04 11:03:00,43.2,21.1,30.18,WNW,290,5.0,5.0,41,0.00,,,0.00,0.00,VWS V14.01,2013-04-04 15:03:00,
2013-04-04 11:05:00,43.4,21.9,30.18,SW,236,5.0,8.0,42,0.00,,,0.00,0.00,VWS V14.01,2013-04-04 15:05:00,
2013-04-04 11:08:00,43.5,22.0,30.18,SW,222,7.0,7.0,42,0.00,,,0.00,0.00,VWS V14.01,2013-04-04 15:08:00,
2013-04-04 11:10:00,43.4,21.3,30.18,SSW,213,4.0,4.0,41,0.00,,,0.00,0.00,VWS V14.01,2013-04-04 15:10:00,
2013-04-04 11:13:00,43.6,22.6,30.18,SSW,195,2.0,3.0,43,0.00,,,0.00,0.00,VWS V14.01,2013-04-04 15:13:00,
2013-04-04 11:15:00,43.9,21.7,30.18,SW,227,4.0,7.0,41,0.00,,,0.00,0.00,VWS V14.01,2013-04-04 15:15:00,
2013-04-04 11:16:00,43.9,21.2,30.18,SW,223,2.0,5.0,40,0.00,,,0.00,0.00,VWS V14.01,2013-04-04 15:16:00,
2013-04-04 11:18:00,43.9,21.7,30.18,SW,223,1.0,2.0,41,0.00,,,0.00,0.00,VWS V14.01,2013-04-04 15:18:00,
2013-04-04 11:20:00,44.1,22.5,30.18,SW,215,6.0,6.0,42,0.00,,,0.00,0.00,VWS V14.01,2013-04-04 15:20:00,
2013-04-04 11:21:00,44.3,22.1,30.17,West,260,2.0,6.0,41,0.00,,,0.00,0.00,VWS V14.01,2013-04-04 15:21:00,
2013-04-04 11:23:00,44.4,23.3,30.17,SSW,201,3.0,4.0,43,0.00,,,0.00,0.00,VWS V14.01,2013-04-04 15:23:00,
2013-04-04 11:24:00,44.5,21.7,30.17,SSW,201,0.0,1.0,40,0.00,,,0.00,0.00,VWS V14.01,2013-04-04 15:24:00,
2013-04-04 11:25:00,44.6,21.8,30.17,SSW,201,1.0,2.0,40,0.00,,,0.00,0.00,VWS V14.01,2013-04-04 15:25:00,
2013-04-04 11:26:00,44.7,21.9,30.17,SSW,200,2.0,2.0,40,0.00,,,0.00,0.00,VWS V14.01,2013-04-04 15:26:00,
2013-04-04 11:28:00,44.8,22.5,30.17,SSW,200,0.0,0.0,41,0.00,,,0.00,0.00,VWS V14.01,2013-04-04 15:28:00,
2013-04-04 11:29:00,45.0,22.7,30.17,SSW,200,0.0,1.0,41,0.00,,,0.00,0.00,VWS V14.01,2013-04-04 15:29:00,
2013-04-04 11:30:00,45.3,23.0,30.17,SSW,200,0.0,1.0,41,0.00,,,0.00,0.00,VWS V14.01,2013-04-04 15:30:00,
2013-04-04 11:32:00,45.5,22.6,30.17,SSE,166,1.0,2.0,40,0.00,,,0.00,0.00,VWS V14.01,2013-04-04 15:32:00,
2013-04-04 11:33:00,45.7,22.8,30.17,SSE,155,3.0,6.0,40,0.00,,,0.00,0.00,VWS V14.01,2013-04-04 15:33:00,
2013-04-04 11:34:00,45.8,22.3,30.17,SSE,165,3.0,6.0,39,0.00,,,0.00,0.00,VWS V14.01,2013-04-04 15:34:00,
2013-04-04 11:36:00,45.9,21.7,30.17,SSE,163,4.0,4.0,38,0.00,,,0.00,0.00,VWS V14.01,2013-04-04 15:36:00,
2013-04-04 11:37:00,45.9,21.7,30.17,SSE,163,2.0,2.0,38,0.00,,,0.00,0.00,VWS V14.01,2013-04-04 15:37:00,
2013-04-04 11:38:00,45.9,21.1,30.17,SSE,163,0.0,2.0,37,0.00,,,0.00,0.00,VWS V14.01,2013-04-04 15:38:00,
2013-04-04 11:39:00,46.0,23.0,30.17,SSW,200,4.0,4.0,40,0.00,,,0.00,0.00,VWS V14.01,2013-04-04 15:39:00,
2013-04-04 11:41:00,46.1,22.5,30.17,SSW,200,2.0,2.0,39,0.00,,,0.00,0.00,VWS V14.01,2013-04-04 15:41:00,
2013-04-04 11:42:00,46.2,22.6,30.17,SSW,200,1.0,1.0,39,0.00,,,0.00,0.00,VWS V14.01,2013-04-04 15:42:00,
2013-04-04 11:43:00,46.3,23.3,30.17,SSW,201,2.0,4.0,40,0.00,,,0.00,0.00,VWS V14.01,2013-04-04 15:43:00,
2013-04-04 11:45:00,46.4,20.9,30.17,SSE,159,3.0,4.0,36,0.00,,,0.00,0.00,VWS V14.01,2013-04-04 15:45:00,
2013-04-04 11:46:00,46.5,21.0,30.17,SSE,148,5.0,5.0,36,0.00,,,0.00,0.00,VWS V14.01,2013-04-04 15:46:00,
2013-04-04 11:47:00,46.5,21.0,30.17,SSE,150,2.0,4.0,36,0.00,,,0.00,0.00,VWS V14.01,2013-04-04 15:47:00,
2013-04-04 11:48:00,46.6,21.7,30.17,SE,132,9.0,11.0,37,0.00,,,0.00,0.00,VWS V14.01,2013-04-04 15:48:00,
2013-04-04 11:50:00,46.5,20.3,30.17,SSE,162,1.0,4.0,35,0.00,,,0.00,0.00,VWS V14.01,2013-04-04 15:50:00,
2013-04-04 11:51:00,46.5,21.6,30.17,SSE,165,1.0,4.0,37,0.00,,,0.00,0.00,VWS V14.01,2013-04-04 15:51:00,
2013-04-04 11:52:00,46.5,21.6,30.16,SSE,158,2.0,4.0,37,0.00,,,0.00,0.00,VWS V14.01,2013-04-04 15:52:00,
2013-04-04 11:53:00,46.5,20.3,30.16,SSE,166,3.0,4.0,35,0.00,,,0.00,0.00,VWS V14.01,2013-04-04 15:53:00,
2013-04-04 11:55:00,46.4,20.2,30.16,SSW,210,1.0,5.0,35,0.00,,,0.00,0.00,VWS V14.01,2013-04-04 15:55:00,
2013-04-04 11:57:00,46.4,20.9,30.16,SSW,210,0.0,0.0,36,0.00,,,0.00,0.00,VWS V14.01,2013-04-04 15:57:00,
2013-04-04 11:58:00,46.5,21.0,30.16,SSW,210,2.0,2.0,36,0.00,,,0.00,0.00,VWS V14.01,2013-04-04 15:58:00,
2013-04-04 12:00:00,46.7,21.8,30.16,SSW,208,1.0,2.0,37,0.00,,,0.00,0.00,VWS V14.01,2013-04-04 16:00:00,
2013-04-04 12:02:00,46.8,21.3,30.16,SSW,208,1.0,1.0,36,0.00,,,0.00,0.00,VWS V14.01,2013-04-04 16:02:00,
2013-04-04 12:03:00,46.9,22.0,30.16,SSW,208,1.0,2.0,37,0.00,,,0.00,0.00,VWS V14.01,2013-04-04 16:03:00,
2013-04-04 12:05:00,47.0,24.0,30.16,SSW,208,2.0,3.0,40,0.00,,,0.00,0.00,VWS V14.01,2013-04-04 16:05:00,
2013-04-04 12:07:00,47.1,22.2,30.16,SSW,209,2.0,2.0,37,0.00,,,0.00,0.00,VWS V14.01,2013-04-04 16:07:00,
2013-04-04 12:08:00,47.2,22.9,30.16,SW,233,3.0,4.0,38,0.00,,,0.00,0.00,VWS V14.01,2013-04-04 16:08:00,
2013-04-04 12:11:00,47.2,22.9,30.16,SW,223,3.0,3.0,38,0.00,,,0.00,0.00,VWS V14.01,2013-04-04 16:11:00,
2013-04-04 12:12:00,47.4,21.8,30.16,SW,220,2.0,4.0,36,0.00,,,0.00,0.00,VWS V14.01,2013-04-04 16:12:00,
2013-04-04 12:13:00,47.4,21.8,30.16,SW,220,2.0,2.0,36,0.00,,,0.00,0.00,VWS V14.01,2013-04-04 16:13:00,
2013-04-04 12:16:00,47.6,22.6,30.16,SE,142,5.0,6.0,37,0.00,,,0.00,0.00,VWS V14.01,2013-04-04 16:16:00,
2013-04-04 12:17:00,47.7,22.1,30.16,SSE,148,0.0,4.0,36,0.00,,,0.00,0.00,VWS V14.01,2013-04-04 16:17:00,
2013-04-04 12:18:00,47.8,22.8,30.15,SSE,154,3.0,3.0,37,0.00,,,0.00,0.00,VWS V14.01,2013-04-04 16:18:00,
2013-04-04 12:19:00,48.0,22.3,30.15,SSW,210,2.0,2.0,36,0.00,,,0.00,0.00,VWS V14.01,2013-04-04 16:19:00,
2013-04-04 12:21:00,48.1,23.1,30.15,SW,219,7.0,7.0,37,0.00,,,0.00,0.00,VWS V14.01,2013-04-04 16:21:00,
2013-04-04 12:22:00,48.1,22.4,30.15,SW,232,2.0,7.0,36,0.00,,,0.00,0.00,VWS V14.01,2013-04-04 16:22:00,
2013-04-04 12:23:00,48.0,21.7,30.15,SW,236,2.0,5.0,35,0.00,,,0.00,0.00,VWS V14.01,2013-04-04 16:23:00,
2013-04-04 12:24:00,47.9,21.6,30.15,SW,236,0.0,1.0,35,0.00,,,0.00,0.00,VWS V14.01,2013-04-04 16:24:00,
2013-04-04 12:27:00,47.9,22.2,30.15,SW,228,2.0,4.0,36,0.00,,,0.00,0.00,VWS V14.01,2013-04-04 16:27:00,
2013-04-04 12:28:00,48.0,22.3,30.15,SW,227,2.0,4.0,36,0.00,,,0.00,0.00,VWS V14.01,2013-04-04 16:28:00,
2013-04-04 12:30:00,48.1,21.8,30.15,SW,228,1.0,1.0,35,0.00,,,0.00,0.00,VWS V14.01,2013-04-04 16:30:00,
2013-04-04 12:32:00,48.2,22.5,30.15,SW,227,0.0,1.0,36,0.00,,,0.00,0.00,VWS V14.01,2013-04-04 16:32:00,
2013-04-04 12:33:00,48.2,23.2,30.15,SW,227,0.0,0.0,37,0.00,,,0.00,0.00,VWS V14.01,2013-04-04 16:33:00,
2013-04-04 12:35:00,48.4,22.7,30.15,WSW,257,2.0,3.0,36,0.00,,,0.00,0.00,VWS V14.01,2013-04-04 16:35:00,
2013-04-04 12:37:00,48.4,23.3,30.15,WSW,257,1.0,1.0,37,0.00,,,0.00,0.00,VWS V14.01,2013-04-04 16:37:00,
2013-04-04 12:39:00,48.4,22.0,30.14,WSW,254,2.0,3.0,35,0.00,,,0.00,0.00,VWS V14.01,2013-04-04 16:39:00,
2013-04-04 12:40:00,48.3,21.9,30.14,WSW,238,7.0,7.0,35,0.00,,,0.00,0.00,VWS V14.01,2013-04-04 16:40:00,
2013-04-04 12:42:00,48.3,23.3,30.14,SE,134,1.0,3.0,37,0.00,,,0.00,0.00,VWS V14.01,2013-04-04 16:42:00,
2013-04-04 12:44:00,48.6,23.5,30.14,SE,134,3.0,3.0,37,0.00,,,0.00,0.00,VWS V14.01,2013-04-04 16:44:00,
2013-04-04 12:45:00,48.7,22.3,30.14,SE,138,3.0,6.0,35,0.00,,,0.00,0.00,VWS V14.01,2013-04-04 16:45:00,
2013-04-04 12:47:00,48.9,23.8,30.14,SE,139,1.0,2.0,37,0.00,,,0.00,0.00,VWS V14.01,2013-04-04 16:47:00,
2013-04-04 12:49:00,49.2,22.7,30.14,SE,132,3.0,4.0,35,0.00,,,0.00,0.00,VWS V14.01,2013-04-04 16:49:00,
2013-04-04 12:50:00,49.3,22.8,30.14,SE,134,4.0,4.0,35,0.00,,,0.00,0.00,VWS V14.01,2013-04-04 16:50:00,
2013-04-04 12:52:00,49.4,22.2,30.14,SE,141,2.0,2.0,34,0.00,,,0.00,0.00,VWS V14.01,2013-04-04 16:52:00,
2013-04-04 12:54:00,49.6,22.4,30.13,SE,142,1.0,3.0,34,0.00,,,0.00,0.00,VWS V14.01,2013-04-04 16:54:00,
2013-04-04 12:55:00,49.6,21.7,30.13,SE,142,0.0,3.0,33,0.00,,,0.00,0.00,VWS V14.01,2013-04-04 16:55:00,
2013-04-04 12:57:00,49.8,23.3,30.13,SE,144,4.0,4.0,35,0.00,,,0.00,0.00,VWS V14.01,2013-04-04 16:57:00,
2013-04-04 12:58:00,49.8,23.3,30.13,SE,144,0.0,3.0,35,0.00,,,0.00,0.00,VWS V14.01,2013-04-04 16:58:00,
2013-04-04 12:59:00,50.0,22.8,30.13,SW,234,2.0,4.0,34,0.00,,,0.00,0.00,VWS V14.01,2013-04-04 16:59:00,
2013-04-04 13:00:00,50.0,22.0,30.13,SW,234,3.0,4.0,33,0.00,,,0.00,0.00,VWS V14.01,2013-04-04 17:00:00,
2013-04-04 13:02:00,50.0,22.8,30.13,South,189,1.0,4.0,34,0.00,,,0.00,0.00,VWS V14.01,2013-04-04 17:02:00,
2013-04-04 13:03:00,50.0,22.8,30.13,South,189,0.0,1.0,34,0.00,,,0.00,0.00,VWS V14.01,2013-04-04 17:03:00,
2013-04-04 13:05:00,50.0,22.0,30.13,South,189,0.0,0.0,33,0.00,,,0.00,0.00,VWS V14.01,2013-04-04 17:05:00,
2013-04-04 13:07:00,50.1,22.1,30.13,SSE,161,2.0,2.0,33,0.00,,,0.00,0.00,VWS V14.01,2013-04-04 17:07:00,
2013-04-04 13:08:00,50.2,22.2,30.13,SSE,165,3.0,5.0,33,0.00,,,0.00,0.00,VWS V14.01,2013-04-04 17:08:00,
2013-04-04 13:10:00,50.3,20.8,30.13,SW,220,4.0,4.0,31,0.00,,,0.00,0.00,VWS V14.01,2013-04-04 17:10:00,
2013-04-04 13:12:00,50.2,21.5,30.13,SSE,161,1.0,4.0,32,0.00,,,0.00,0.00,VWS V14.01,2013-04-04 17:12:00,
2013-04-04 13:13:00,50.2,21.5,30.13,SSE,161,1.0,2.0,32,0.00,,,0.00,0.00,VWS V14.01,2013-04-04 17:13:00,
2013-04-04 13:15:00,50.2,21.5,30.13,SSE,161,3.0,3.0,32,0.00,,,0.00,0.00,VWS V14.01,2013-04-04 17:15:00,
2013-04-04 13:17:00,50.1,20.7,30.13,SSE,161,2.0,2.0,31,0.00,,,0.00,0.00,VWS V14.01,2013-04-04 17:17:00,
2013-04-04 13:18:00,50.1,20.7,30.13,SSE,161,0.0,2.0,31,0.00,,,0.00,0.00,VWS V14.01,2013-04-04 17:18:00,
2013-04-04 13:20:00,50.1,21.4,30.13,SSE,161,0.0,1.0,32,0.00,,,0.00,0.00,VWS V14.01,2013-04-04 17:20:00,
2013-04-04 13:22:00,50.1,20.7,30.12,SSE,161,0.0,0.0,31,0.00,,,0.00,0.00,VWS V14.01,2013-04-04 17:22:00,
2013-04-04 13:23:00,50.1,19.9,30.12,SSE,159,1.0,1.0,30,0.00,,,0.00,0.00,VWS V14.01,2013-04-04 17:23:00,
2013-04-04 13:25:00,50.3,21.6,30.12,East,94,1.0,2.0,32,0.00,,,0.00,0.00,VWS V14.01,2013-04-04 17:25:00,
2013-04-04 13:28:00,50.4,20.9,30.12,ESE,115,4.0,4.0,31,0.00,,,0.00,0.00,VWS V14.01,2013-04-04 17:28:00,
2013-04-04 13:29:00,50.4,20.9,30.12,ESE,117,1.0,1.0,31,0.00,,,0.00,0.00,VWS V14.01,2013-04-04 17:29:00,
2013-04-04 13:31:00,50.5,21.8,30.12,ESE,117,0.0,0.0,32,0.00,,,0.00,0.00,VWS V14.01,2013-04-04 17:31:00,
2013-04-04 13:33:00,50.8,21.3,30.12,ESE,116,1.0,2.0,31,0.00,,,0.00,0.00,VWS V14.01,2013-04-04 17:33:00,
2013-04-04 13:34:00,50.9,20.6,30.12,ESE,116,1.0,1.0,30,0.00,,,0.00,0.00,VWS V14.01,2013-04-04 17:34:00,
2013-04-04 13:36:00,51.0,22.2,30.12,ESE,116,2.0,2.0,32,0.00,,,0.00,0.00,VWS V14.01,2013-04-04 17:36:00,
2013-04-04 13:39:00,51.2,21.6,30.12,ESE,116,0.0,1.0,31,0.00,,,0.00,0.00,VWS V14.01,2013-04-04 17:39:00,
2013-04-04 13:41:00,51.3,20.9,30.11,ESE,123,2.0,3.0,30,0.00,,,0.00,0.00,VWS V14.01,2013-04-04 17:41:00,
2013-04-04 13:44:00,51.2,21.6,30.11,ESE,123,1.0,2.0,31,0.00,,,0.00,0.00,VWS V14.01,2013-04-04 17:44:00,
2013-04-04 13:45:00,51.1,22.3,30.11,ESE,123,0.0,2.0,32,0.00,,,0.00,0.00,VWS V14.01,2013-04-04 17:45:00,
2013-04-04 13:47:00,51.2,22.4,30.11,WSW,252,3.0,3.0,32,0.00,,,0.00,0.00,VWS V14.01,2013-04-04 17:47:00,
2013-04-04 13:50:00,51.2,23.1,30.11,WNW,291,3.0,4.0,33,0.00,,,0.00,0.00,VWS V14.01,2013-04-04 17:50:00,
2013-04-04 13:52:00,51.2,21.6,30.11,West,278,3.0,3.0,31,0.00,,,0.00,0.00,VWS V14.01,2013-04-04 17:52:00,
2013-04-04 13:55:00,51.2,21.6,30.10,SSW,205,1.0,3.0,31,0.00,,,0.00,0.00,VWS V14.01,2013-04-04 17:55:00,
2013-04-04 13:57:00,51.1,20.8,30.10,SSW,205,0.0,0.0,30,0.00,,,0.00,0.00,VWS V14.01,2013-04-04 17:57:00,
2013-04-04 14:00:00,51.2,23.1,30.10,West,279,6.0,7.0,33,0.00,,,0.00,0.00,VWS V14.01,2013-04-04 18:00:00,
2013-04-04 14:02:00,51.2,22.4,30.10,WNW,289,4.0,5.0,32,0.00,,,0.00,0.00,VWS V14.01,2013-04-04 18:02:00,
2013-04-04 14:05:00,51.1,21.5,30.10,WNW,282,0.0,1.0,31,0.00,,,0.00,0.00,VWS V14.01,2013-04-04 18:05:00,
2013-04-04 14:07:00,51.1,22.3,30.10,WSW,250,0.0,3.0,32,0.00,,,0.00,0.00,VWS V14.01,2013-04-04 18:07:00,
2013-04-04 14:10:00,51.3,22.5,30.10,WSW,247,0.0,1.0,32,0.00,,,0.00,0.00,VWS V14.01,2013-04-04 18:10:00,
2013-04-04 14:12:00,51.5,22.6,30.09,WSW,246,2.0,4.0,32,0.00,,,0.00,0.00,VWS V14.01,2013-04-04 18:12:00,
2013-04-04 14:15:00,51.7,22.8,30.09,WNW,286,5.0,6.0,32,0.00,,,0.00,0.00,VWS V14.01,2013-04-04 18:15:00,
2013-04-04 14:17:00,51.9,23.0,30.09,West,279,1.0,2.0,32,0.00,,,0.00,0.00,VWS V14.01,2013-04-04 18:17:00,
2013-04-04 14:20:00,52.1,21.6,30.09,West,279,1.0,2.0,30,0.00,,,0.00,0.00,VWS V14.01,2013-04-04 18:20:00,
2013-04-04 14:21:00,52.1,21.6,30.09,WNW,284,2.0,2.0,30,0.00,,,0.00,0.00,VWS V14.01,2013-04-04 18:21:00,
2013-04-04 14:22:00,52.2,23.2,30.09,WNW,284,1.0,3.0,32,0.00,,,0.00,0.00,VWS V14.01,2013-04-04 18:22:00,
2013-04-04 14:23:00,52.3,23.3,30.09,WNW,284,1.0,1.0,32,0.00,,,0.00,0.00,VWS V14.01,2013-04-04 18:23:00,
2013-04-04 14:26:00,52.7,22.2,30.08,NNW,341,0.0,0.0,30,0.00,,,0.00,0.00,VWS V14.01,2013-04-04 18:26:00,
2013-04-04 14:27:00,52.8,23.8,30.08,NNW,341,1.0,2.0,32,0.00,,,0.00,0.00,VWS V14.01,2013-04-04 18:27:00,
2013-04-04 14:28:00,52.8,22.2,30.08,NNW,341,0.0,1.0,30,0.00,,,0.00,0.00,VWS V14.01,2013-04-04 18:28:00,
2013-04-04 14:31:00,52.9,22.3,30.08,NNW,331,3.0,4.0,30,0.00,,,0.00,0.00,VWS V14.01,2013-04-04 18:31:00,
2013-04-04 14:32:00,53.0,24.7,30.08,WNW,282,7.0,7.0,33,0.00,,,0.00,0.00,VWS V14.01,2013-04-04 18:32:00,
2013-04-04 14:33:00,52.9,21.5,30.08,WNW,296,2.0,4.0,29,0.00,,,0.00,0.00,VWS V14.01,2013-04-04 18:33:00,
2013-04-04 14:36:00,53.0,22.4,30.08,WNW,296,1.0,3.0,30,0.00,,,0.00,0.00,VWS V14.01,2013-04-04 18:36:00,
2013-04-04 14:37:00,53.0,22.4,30.08,WNW,296,1.0,1.0,30,0.00,,,0.00,0.00,VWS V14.01,2013-04-04 18:37:00,
2013-04-04 14:38:00,53.1,22.5,30.08,WNW,296,4.0,4.0,30,0.00,,,0.00,0.00,VWS V14.01,2013-04-04 18:38:00,
2013-04-04 14:41:00,53.1,22.5,30.07,WNW,288,3.0,3.0,30,0.00,,,0.00,0.00,VWS V14.01,2013-04-04 18:41:00,
2013-04-04 14:42:00,53.0,21.6,30.07,WNW,288,0.0,3.0,29,0.00,,,0.00,0.00,VWS V14.01,2013-04-04 18:42:00,
2013-04-04 14:43:00,53.0,21.6,30.07,WNW,290,4.0,6.0,29,0.00,,,0.00,0.00,VWS V14.01,2013-04-04 18:43:00,
2013-04-04 14:46:00,53.0,22.4,30.07,West,274,3.0,4.0,30,0.00,,,0.00,0.00,VWS V14.01,2013-04-04 18:46:00,
2013-04-04 14:47:00,53.0,21.6,30.07,West,274,2.0,4.0,29,0.00,,,0.00,0.00,VWS V14.01,2013-04-04 18:47:00,
2013-04-04 14:48:00,52.9,21.5,30.07,West,274,4.0,5.0,29,0.00,,,0.00,0.00,VWS V14.01,2013-04-04 18:48:00,
2013-04-04 14:51:00,52.8,22.2,30.07,West,278,0.0,1.0,30,0.00,,,0.00,0.00,VWS V14.01,2013-04-04 18:51:00,
2013-04-04 14:52:00,52.8,22.2,30.07,West,278,2.0,3.0,30,0.00,,,0.00,0.00,VWS V14.01,2013-04-04 18:52:00,
2013-04-04 14:53:00,52.8,22.2,30.07,WNW,290,1.0,3.0,30,0.00,,,0.00,0.00,VWS V14.01,2013-04-04 18:53:00,
2013-04-04 14:57:00,53.3,22.7,30.07,SW,221,2.0,3.0,30,0.00,,,0.00,0.00,VWS V14.01,2013-04-04 18:57:00,
2013-04-04 14:58:00,53.3,22.7,30.07,West,277,3.0,3.0,30,0.00,,,0.00,0.00,VWS V14.01,2013-04-04 18:58:00,
2013-04-04 15:02:00,53.2,21.8,30.06,West,280,0.0,0.0,29,0.00,,,0.00,0.00,VWS V14.01,2013-04-04 19:02:00,
2013-04-04 15:03:00,53.2,21.8,30.06,West,280,1.0,1.0,29,0.00,,,0.00,0.00,VWS V14.01,2013-04-04 19:03:00,
2013-04-04 15:07:00,53.4,22.8,30.06,West,281,0.0,0.0,30,0.00,,,0.00,0.00,VWS V14.01,2013-04-04 19:07:00,
2013-04-04 15:08:00,53.5,22.0,30.06,WNW,301,1.0,3.0,29,0.00,,,0.00,0.00,VWS V14.01,2013-04-04 19:08:00,
2013-04-04 15:12:00,54.1,21.7,30.06,WNW,290,4.0,7.0,28,0.00,,,0.00,0.00,VWS V14.01,2013-04-04 19:12:00,
2013-04-04 15:13:00,54.1,20.9,30.06,WNW,289,5.0,6.0,27,0.00,,,0.00,0.00,VWS V14.01,2013-04-04 19:13:00,
2013-04-04 15:17:00,53.8,21.5,30.06,West,269,1.0,2.0,28,0.00,,,0.00,0.00,VWS V14.01,2013-04-04 19:17:00,
2013-04-04 15:18:00,53.8,21.5,30.06,West,269,4.0,4.0,28,0.00,,,0.00,0.00,VWS V14.01,2013-04-04 19:18:00,
2013-04-04 15:22:00,53.8,21.5,30.06,WNW,290,3.0,3.0,28,0.00,,,0.00,0.00,VWS V14.01,2013-04-04 19:22:00,
2013-04-04 15:23:00,53.8,21.5,30.06,WNW,292,0.0,3.0,28,0.00,,,0.00,0.00,VWS V14.01,2013-04-04 19:23:00,
2013-04-04 15:27:00,54.3,21.9,30.05,WNW,294,0.0,4.0,28,0.00,,,0.00,0.00,VWS V14.01,2013-04-04 19:27:00,
2013-04-04 15:28:00,54.4,20.2,30.05,WNW,294,0.0,1.0,26,0.00,,,0.00,0.00,VWS V14.01,2013-04-04 19:28:00,
2013-04-04 15:32:00,54.6,21.3,30.05,WNW,298,4.0,4.0,27,0.00,,,0.00,0.00,VWS V14.01,2013-04-04 19:32:00,
2013-04-04 15:33:00,54.6,20.4,30.05,WNW,300,2.0,5.0,26,0.00,,,0.00,0.00,VWS V14.01,2013-04-04 19:33:00,
2013-04-04 15:37:00,54.7,22.3,30.05,NW,315,2.0,2.0,28,0.00,,,0.00,0.00,VWS V14.01,2013-04-04 19:37:00,
2013-04-04 15:38:00,54.7,22.3,30.05,WNW,290,6.0,6.0,28,0.00,,,0.00,0.00,VWS V14.01,2013-04-04 19:38:00,
2013-04-04 15:43:00,55.1,22.6,30.05,WNW,295,2.0,2.0,28,0.00,,,0.00,0.00,VWS V14.01,2013-04-04 19:43:00,
2013-04-04 15:48:00,54.8,20.6,30.04,WNW,300,1.0,1.0,26,0.00,,,0.00,0.00,VWS V14.01,2013-04-04 19:48:00,
2013-04-04 15:53:00,55.4,22.0,30.04,WNW,300,0.0,3.0,27,0.00,,,0.00,0.00,VWS V14.01,2013-04-04 19:53:00,
2013-04-04 15:54:00,55.5,22.1,30.04,WNW,296,3.0,3.0,27,0.00,,,0.00,0.00,VWS V14.01,2013-04-04 19:54:00,
2013-04-04 15:58:00,55.5,22.1,30.04,WNW,295,1.0,4.0,27,0.00,,,0.00,0.00,VWS V14.01,2013-04-04 19:58:00,
2013-04-04 15:59:00,55.5,22.1,30.04,WNW,295,3.0,3.0,27,0.00,,,0.00,0.00,VWS V14.01,2013-04-04 19:59:00,
2013-04-04 16:03:00,55.3,21.0,30.03,WNW,301,0.0,1.0,26,0.00,,,0.00,0.00,VWS V14.01,2013-04-04 20:03:00,
2013-04-04 16:04:00,55.2,20.9,30.03,WNW,301,0.0,0.0,26,0.00,,,0.00,0.00,VWS V14.01,2013-04-04 20:04:00,
2013-04-04 16:09:00,55.7,23.1,30.03,NW,308,2.0,5.0,28,0.00,,,0.00,0.00,VWS V14.01,2013-04-04 20:09:00,
2013-04-04 16:10:00,56.0,22.5,30.03,NW,308,0.0,3.0,27,0.00,,,0.00,0.00,VWS V14.01,2013-04-04 20:10:00,
2013-04-04 16:14:00,55.8,20.5,30.03,WNW,296,2.0,4.0,25,0.00,,,0.00,0.00,VWS V14.01,2013-04-04 20:14:00,
2013-04-04 16:15:00,55.7,21.4,30.03,WNW,296,0.0,0.0,26,0.00,,,0.00,0.00,VWS V14.01,2013-04-04 20:15:00,
2013-04-04 16:19:00,55.8,21.5,30.02,West,280,3.0,5.0,26,0.00,,,0.00,0.00,VWS V14.01,2013-04-04 20:19:00,
2013-04-04 16:20:00,55.8,21.5,30.03,NW,318,3.0,3.0,26,0.00,,,0.00,0.00,VWS V14.01,2013-04-04 20:20:00,
2013-04-04 16:24:00,55.9,21.5,30.02,NW,321,1.0,2.0,26,0.00,,,0.00,0.00,VWS V14.01,2013-04-04 20:24:00,
2013-04-04 16:25:00,55.9,22.4,30.02,NW,313,3.0,5.0,27,0.00,,,0.00,0.00,VWS V14.01,2013-04-04 20:25:00,
2013-04-04 16:29:00,56.2,20.9,30.02,WNW,302,2.0,3.0,25,0.00,,,0.00,0.00,VWS V14.01,2013-04-04 20:29:00,
2013-04-04 16:30:00,56.1,19.8,30.02,WNW,302,3.0,4.0,24,0.00,,,0.00,0.00,VWS V14.01,2013-04-04 20:30:00,
2013-04-04 16:35:00,56.3,20.0,30.01,NW,322,4.0,5.0,24,0.00,,,0.00,0.00,VWS V14.01,2013-04-04 20:35:00,
2013-04-04 16:36:00,56.3,20.0,30.01,NW,322,4.0,4.0,24,0.00,,,0.00,0.00,VWS V14.01,2013-04-04 20:36:00,
2013-04-04 16:40:00,56.0,20.7,30.01,NW,321,2.0,3.0,25,0.00,,,0.00,0.00,VWS V14.01,2013-04-04 20:40:00,
2013-04-04 16:41:00,55.9,21.5,30.01,NW,321,3.0,4.0,26,0.00,,,0.00,0.00,VWS V14.01,2013-04-04 20:41:00,
2013-04-04 16:45:00,55.6,21.3,30.01,WSW,258,1.0,8.0,26,0.00,,,0.00,0.00,VWS V14.01,2013-04-04 20:45:00,
2013-04-04 16:46:00,55.5,21.2,30.01,WSW,258,0.0,5.0,26,0.00,,,0.00,0.00,VWS V14.01,2013-04-04 20:46:00,
2013-04-04 16:50:00,55.5,21.2,30.01,West,265,1.0,7.0,26,0.00,,,0.00,0.00,VWS V14.01,2013-04-04 20:50:00,
2013-04-04 16:52:00,55.6,22.2,30.01,West,265,0.0,1.0,27,0.00,,,0.00,0.00,VWS V14.01,2013-04-04 20:52:00,
2013-04-04 16:55:00,55.9,21.5,30.01,West,265,1.0,3.0,26,0.00,,,0.00,0.00,VWS V14.01,2013-04-04 20:55:00,
2013-04-04 16:57:00,56.0,21.6,30.00,West,265,0.0,1.0,26,0.00,,,0.00,0.00,VWS V14.01,2013-04-04 20:57:00,
2013-04-04 17:00:00,56.1,21.7,30.00,WNW,284,1.0,5.0,26,0.00,,,0.00,0.00,VWS V14.01,2013-04-04 21:00:00,
2013-04-04 17:02:00,56.2,21.8,30.00,West,281,3.0,8.0,26,0.00,,,0.00,0.00,VWS V14.01,2013-04-04 21:02:00,
2013-04-04 17:05:00,56.3,21.0,30.00,West,263,3.0,5.0,25,0.00,,,0.00,0.00,VWS V14.01,2013-04-04 21:05:00,
2013-04-04 17:07:00,56.2,19.9,30.00,NNW,348,4.0,6.0,24,0.00,,,0.00,0.00,VWS V14.01,2013-04-04 21:07:00,
2013-04-04 17:10:00,56.4,20.1,30.00,NW,318,1.0,6.0,24,0.00,,,0.00,0.00,VWS V14.01,2013-04-04 21:10:00,
2013-04-04 17:11:00,56.4,20.1,30.00,NW,319,3.0,3.0,24,0.00,,,0.00,0.00,VWS V14.01,2013-04-04 21:11:00,
2013-04-04 17:12:00,56.5,19.2,30.00,North,351,3.0,6.0,23,0.00,,,0.00,0.00,VWS V14.01,2013-04-04 21:12:00,
2013-04-04 17:15:00,56.5,22.0,30.00,NNW,344,1.0,5.0,26,0.00,,,0.00,0.00,VWS V14.01,2013-04-04 21:15:00,
2013-04-04 17:16:00,56.6,22.1,30.00,NNW,344,0.0,1.0,26,0.00,,,0.00,0.00,VWS V14.01,2013-04-04 21:16:00,
2013-04-04 17:17:00,56.6,22.1,30.00,NNW,344,1.0,1.0,26,0.00,,,0.00,0.00,VWS V14.01,2013-04-04 21:17:00,
2013-04-04 17:20:00,57.0,22.5,30.00,NNW,344,0.0,1.0,26,0.00,,,0.00,0.00,VWS V14.01,2013-04-04 21:20:00,
2013-04-04 17:21:00,57.1,22.6,30.00,NNW,344,0.0,0.0,26,0.00,,,0.00,0.00,VWS V14.01,2013-04-04 21:21:00,
2013-04-04 17:22:00,57.2,21.7,30.00,North,360,8.0,8.0,25,0.00,,,0.00,0.00,VWS V14.01,2013-04-04 21:22:00,
2013-04-04 17:25:00,57.2,21.7,30.00,NNW,340,0.0,2.0,25,0.00,,,0.00,0.00,VWS V14.01,2013-04-04 21:25:00,
2013-04-04 17:26:00,57.2,22.6,30.00,NNW,340,0.0,1.0,26,0.00,,,0.00,0.00,VWS V14.01,2013-04-04 21:26:00,
2013-04-04 17:27:00,57.2,22.6,30.00,NE,41,4.0,6.0,26,0.00,,,0.00,0.00,VWS V14.01,2013-04-04 21:27:00,
2013-04-04 17:28:00,57.3,23.6,30.00,NE,39,4.0,4.0,27,0.00,,,0.00,0.00,VWS V14.01,2013-04-04 21:28:00,
2013-04-04 17:30:00,57.4,22.8,30.00,NE,41,0.0,1.0,26,0.00,,,0.00,0.00,VWS V14.01,2013-04-04 21:30:00,
2013-04-04 17:31:00,57.5,23.8,30.00,NE,41,2.0,2.0,27,0.00,,,0.00,0.00,VWS V14.01,2013-04-04 21:31:00,
2013-04-04 17:32:00,57.5,22.9,30.00,North,11,6.0,7.0,26,0.00,,,0.00,0.00,VWS V14.01,2013-04-04 21:32:00,
2013-04-04 17:33:00,57.6,23.0,30.00,NNE,27,2.0,6.0,26,0.00,,,0.00,0.00,VWS V14.01,2013-04-04 21:33:00,
2013-04-04 17:35:00,57.5,23.8,30.00,NNW,342,5.0,5.0,27,0.00,,,0.00,0.00,VWS V14.01,2013-04-04 21:35:00,
2013-04-04 17:36:00,57.5,23.8,30.00,North,355,3.0,4.0,27,0.00,,,0.00,0.00,VWS V14.01,2013-04-04 21:36:00,
2013-04-04 17:37:00,57.5,23.8,30.00,NNE,14,3.0,8.0,27,0.00,,,0.00,0.00,VWS V14.01,2013-04-04 21:37:00,
2013-04-04 17:38:00,57.5,24.7,30.00,North,5,3.0,4.0,28,0.00,,,0.00,0.00,VWS V14.01,2013-04-04 21:38:00,
2013-04-04 17:40:00,57.2,21.7,30.00,WNW,302,0.0,2.0,25,0.00,,,0.00,0.00,VWS V14.01,2013-04-04 21:40:00,
2013-04-04 17:42:00,57.2,22.6,30.00,NW,308,3.0,4.0,26,0.00,,,0.00,0.00,VWS V14.01,2013-04-04 21:42:00,
2013-04-04 17:43:00,57.0,22.5,30.00,North,355,3.0,4.0,26,0.00,,,0.00,0.00,VWS V14.01,2013-04-04 21:43:00,
2013-04-04 17:45:00,56.8,21.4,30.00,North,355,2.0,2.0,25,0.00,,,0.00,0.00,VWS V14.01,2013-04-04 21:45:00,
2013-04-04 17:47:00,56.6,22.1,30.00,North,351,4.0,5.0,26,0.00,,,0.00,0.00,VWS V14.01,2013-04-04 21:47:00,
2013-04-04 17:48:00,56.6,22.1,30.00,NNW,346,3.0,4.0,26,0.00,,,0.00,0.00,VWS V14.01,2013-04-04 21:48:00,
2013-04-04 17:51:00,56.6,22.1,30.00,NNW,346,0.0,1.0,26,0.00,,,0.00,0.00,VWS V14.01,2013-04-04 21:51:00,
2013-04-04 17:52:00,56.6,22.1,30.00,NNW,346,2.0,4.0,26,0.00,,,0.00,0.00,VWS V14.01,2013-04-04 21:52:00,
2013-04-04 17:53:00,56.6,22.1,29.99,North,355,6.0,6.0,26,0.00,,,0.00,0.00,VWS V14.01,2013-04-04 21:53:00,
2013-04-04 17:56:00,56.3,21.0,29.99,NNW,347,6.0,7.0,25,0.00,,,0.00,0.00,VWS V14.01,2013-04-04 21:56:00,
2013-04-04 17:57:00,56.2,21.8,29.99,North,360,2.0,6.0,26,0.00,,,0.00,0.00,VWS V14.01,2013-04-04 21:57:00,
2013-04-04 17:58:00,56.1,21.7,29.99,NNW,339,4.0,5.0,26,0.00,,,0.00,0.00,VWS V14.01,2013-04-04 21:58:00,
2013-04-04 18:02:00,56.1,22.6,29.99,NNW,346,0.0,0.0,27,0.00,,,0.00,0.00,VWS V14.01,2013-04-04 22:02:00,
2013-04-04 18:03:00,56.2,23.5,29.99,NNW,346,2.0,2.0,28,0.00,,,0.00,0.00,VWS V14.01,2013-04-04 22:03:00,
2013-04-04 18:07:00,56.3,21.9,29.99,North,351,3.0,5.0,26,0.00,,,0.00,0.00,VWS V14.01,2013-04-04 22:07:00,
2013-04-04 18:08:00,56.2,22.7,29.99,NNW,327,2.0,4.0,27,0.00,,,0.00,0.00,VWS V14.01,2013-04-04 22:08:00,
2013-04-04 18:09:00,56.2,22.7,29.99,WNW,292,2.0,6.0,27,0.00,,,0.00,0.00,VWS V14.01,2013-04-04 22:09:00,
2013-04-04 18:12:00,56.2,23.5,29.99,WNW,294,5.0,6.0,28,0.00,,,0.00,0.00,VWS V14.01,2013-04-04 22:12:00,
2013-04-04 18:13:00,56.2,22.7,29.99,WNW,298,2.0,4.0,27,0.00,,,0.00,0.00,VWS V14.01,2013-04-04 22:13:00,
2013-04-04 18:14:00,56.1,22.6,29.99,NW,315,4.0,4.0,27,0.00,,,0.00,0.00,VWS V14.01,2013-04-04 22:14:00,
2013-04-04 18:17:00,56.2,22.7,29.99,North,360,1.0,4.0,27,0.00,,,0.00,0.00,VWS V14.01,2013-04-04 22:17:00,
2013-04-04 18:19:00,56.2,22.7,29.99,North,5,3.0,3.0,27,0.00,,,0.00,0.00,VWS V14.01,2013-04-04 22:19:00,
2013-04-04 18:22:00,56.2,23.5,30.00,North,5,2.0,3.0,28,0.00,,,0.00,0.00,VWS V14.01,2013-04-04 22:22:00,
2013-04-04 18:24:00,56.3,23.6,30.00,North,355,2.0,3.0,28,0.00,,,0.00,0.00,VWS V14.01,2013-04-04 22:24:00,
2013-04-04 18:27:00,56.1,22.6,29.99,West,275,3.0,4.0,27,0.00,,,0.00,0.00,VWS V14.01,2013-04-04 22:27:00,
2013-04-04 18:28:00,56.0,22.5,29.99,West,261,5.0,6.0,27,0.00,,,0.00,0.00,VWS V14.01,2013-04-04 22:28:00,
2013-04-04 18:29:00,55.9,22.4,29.99,WNW,297,3.0,5.0,27,0.00,,,0.00,0.00,VWS V14.01,2013-04-04 22:29:00,
2013-04-04 18:30:00,55.9,22.4,30.00,NW,321,4.0,5.0,27,0.00,,,0.00,0.00,VWS V14.01,2013-04-04 22:30:00,
2013-04-04 18:32:00,55.7,22.3,30.00,NW,321,2.0,3.0,27,0.00,,,0.00,0.00,VWS V14.01,2013-04-04 22:32:00,
2013-04-04 18:33:00,55.7,22.3,30.00,NW,321,2.0,2.0,27,0.00,,,0.00,0.00,VWS V14.01,2013-04-04 22:33:00,
2013-04-04 18:34:00,55.6,22.2,30.00,NW,321,3.0,3.0,27,0.00,,,0.00,0.00,VWS V14.01,2013-04-04 22:34:00,
2013-04-04 18:35:00,55.6,22.2,30.00,NW,325,3.0,3.0,27,0.00,,,0.00,0.00,VWS V14.01,2013-04-04 22:35:00,
2013-04-04 18:37:00,55.6,22.2,29.99,NNW,327,0.0,0.0,27,0.00,,,0.00,0.00,VWS V14.01,2013-04-04 22:37:00,
2013-04-04 18:38:00,55.6,22.2,30.00,NNW,327,2.0,3.0,27,0.00,,,0.00,0.00,VWS V14.01,2013-04-04 22:38:00,
2013-04-04 18:39:00,55.7,23.1,30.00,NNW,336,6.0,6.0,28,0.00,,,0.00,0.00,VWS V14.01,2013-04-04 22:39:00,
2013-04-04 18:40:00,55.7,22.3,30.00,NNW,340,5.0,6.0,27,0.00,,,0.00,0.00,VWS V14.01,2013-04-04 22:40:00,
2013-04-04 18:42:00,55.7,23.1,30.00,NNW,340,5.0,5.0,28,0.00,,,0.00,0.00,VWS V14.01,2013-04-04 22:42:00,
2013-04-04 18:43:00,55.7,23.1,30.00,NNW,340,5.0,6.0,28,0.00,,,0.00,0.00,VWS V14.01,2013-04-04 22:43:00,
2013-04-04 18:44:00,55.6,22.2,30.00,NNW,340,1.0,4.0,27,0.00,,,0.00,0.00,VWS V14.01,2013-04-04 22:44:00,
2013-04-04 18:45:00,55.5,22.1,30.00,NNW,340,1.0,5.0,27,0.00,,,0.00,0.00,VWS V14.01,2013-04-04 22:45:00,
2013-04-04 18:47:00,55.4,22.0,30.00,North,350,3.0,5.0,27,0.00,,,0.00,0.00,VWS V14.01,2013-04-04 22:47:00,
2013-04-04 18:48:00,55.4,22.0,30.00,North,350,4.0,5.0,27,0.00,,,0.00,0.00,VWS V14.01,2013-04-04 22:48:00,
2013-04-04 18:49:00,55.3,21.9,30.00,North,350,3.0,4.0,27,0.00,,,0.00,0.00,VWS V14.01,2013-04-04 22:49:00,
2013-04-04 18:50:00,55.3,21.9,30.00,North,350,1.0,4.0,27,0.00,,,0.00,0.00,VWS V14.01,2013-04-04 22:50:00,
2013-04-04 18:52:00,55.2,22.7,30.00,NNW,342,1.0,4.0,28,0.00,,,0.00,0.00,VWS V14.01,2013-04-04 22:52:00,
2013-04-04 18:53:00,55.2,22.7,30.00,NNW,342,1.0,2.0,28,0.00,,,0.00,0.00,VWS V14.01,2013-04-04 22:53:00,
2013-04-04 18:54:00,55.2,23.5,30.00,NNW,342,1.0,2.0,29,0.00,,,0.00,0.00,VWS V14.01,2013-04-04 22:54:00,
2013-04-04 18:55:00,55.3,22.8,30.00,NNW,342,0.0,2.0,28,0.00,,,0.00,0.00,VWS V14.01,2013-04-04 22:55:00,
2013-04-04 18:57:00,55.3,23.6,30.00,NNW,347,2.0,4.0,29,0.00,,,0.00,0.00,VWS V14.01,2013-04-04 22:57:00,
2013-04-04 18:58:00,55.4,22.9,30.00,NNW,347,0.0,1.0,28,0.00,,,0.00,0.00,VWS V14.01,2013-04-04 22:58:00,
2013-04-04 19:00:00,55.5,23.8,30.00,NNE,22,4.0,5.0,29,0.00,,,0.00,0.00,VWS V14.01,2013-04-04 23:00:00,
2013-04-04 19:02:00,55.5,23.0,30.00,NE,42,3.0,5.0,28,0.00,,,0.00,0.00,VWS V14.01,2013-04-04 23:02:00,
2013-04-04 19:03:00,55.5,23.0,30.00,NE,42,1.0,3.0,28,0.00,,,0.00,0.00,VWS V14.01,2013-04-04 23:03:00,
2013-04-04 19:05:00,55.3,22.8,30.00,NNE,28,2.0,3.0,28,0.00,,,0.00,0.00,VWS V14.01,2013-04-04 23:05:00,
2013-04-04 19:07:00,55.2,23.5,30.00,NNE,24,2.0,4.0,29,0.00,,,0.00,0.00,VWS V14.01,2013-04-04 23:07:00,
2013-04-04 19:08:00,55.2,23.5,30.00,NNE,17,5.0,5.0,29,0.00,,,0.00,0.00,VWS V14.01,2013-04-04 23:08:00,
2013-04-04 19:11:00,55.1,22.6,30.00,North,360,1.0,1.0,28,0.00,,,0.00,0.00,VWS V14.01,2013-04-04 23:11:00,
2013-04-04 19:12:00,55.0,23.4,30.00,North,360,1.0,4.0,29,0.00,,,0.00,0.00,VWS V14.01,2013-04-04 23:12:00,
2013-04-04 19:13:00,55.0,23.4,30.00,North,360,1.0,2.0,29,0.00,,,0.00,0.00,VWS V14.01,2013-04-04 23:13:00,
2013-04-04 19:15:00,54.9,23.3,29.99,North,360,0.0,1.0,29,0.00,,,0.00,0.00,VWS V14.01,2013-04-04 23:15:00,
2013-04-04 19:16:00,54.9,23.3,29.99,North,360,1.0,1.0,29,0.00,,,0.00,0.00,VWS V14.01,2013-04-04 23:16:00,
2013-04-04 19:17:00,54.9,23.3,29.99,North,5,0.0,6.0,29,0.00,,,0.00,0.00,VWS V14.01,2013-04-04 23:17:00,
2013-04-04 19:18:00,54.9,23.3,29.99,North,5,1.0,1.0,29,0.00,,,0.00,0.00,VWS V14.01,2013-04-04 23:18:00,
2013-04-04 19:21:00,54.8,22.3,30.00,North,355,4.0,6.0,28,0.00,,,0.00,0.00,VWS V14.01,2013-04-04 23:21:00,
2013-04-04 19:22:00,54.8,24.0,30.00,North,355,2.0,2.0,30,0.00,,,0.00,0.00,VWS V14.01,2013-04-04 23:22:00,
2013-04-04 19:23:00,54.8,23.2,30.00,North,355,1.0,2.0,29,0.00,,,0.00,0.00,VWS V14.01,2013-04-04 23:23:00,
2013-04-04 19:26:00,54.8,23.2,30.00,North,355,0.0,0.0,29,0.00,,,0.00,0.00,VWS V14.01,2013-04-04 23:26:00,
2013-04-04 19:27:00,54.9,23.3,29.99,North,355,2.0,3.0,29,0.00,,,0.00,0.00,VWS V14.01,2013-04-04 23:27:00,
2013-04-04 19:28:00,54.9,23.3,29.99,North,355,0.0,3.0,29,0.00,,,0.00,0.00,VWS V14.01,2013-04-04 23:28:00,
2013-04-04 19:31:00,54.9,21.6,29.99,NNW,348,5.0,6.0,27,0.00,,,0.00,0.00,VWS V14.01,2013-04-04 23:31:00,
2013-04-04 19:33:00,54.8,23.2,29.99,NNW,348,1.0,2.0,29,0.00,,,0.00,0.00,VWS V14.01,2013-04-04 23:33:00,
2013-04-04 19:36:00,54.8,22.3,29.99,NNW,348,1.0,1.0,28,0.00,,,0.00,0.00,VWS V14.01,2013-04-04 23:36:00,
2013-04-04 19:38:00,54.8,22.3,29.99,NNW,348,3.0,3.0,28,0.00,,,0.00,0.00,VWS V14.01,2013-04-04 23:38:00,
2013-04-04 19:41:00,54.8,23.2,29.99,NNW,348,0.0,3.0,29,0.00,,,0.00,0.00,VWS V14.01,2013-04-04 23:41:00,
2013-04-04 19:43:00,54.7,23.1,29.99,NNW,348,1.0,1.0,29,0.00,,,0.00,0.00,VWS V14.01,2013-04-04 23:43:00,
2013-04-04 19:46:00,54.6,23.0,29.99,NNW,348,2.0,5.0,29,0.00,,,0.00,0.00,VWS V14.01,2013-04-04 23:46:00,
2013-04-04 19:47:00,54.6,23.0,29.99,NNW,348,1.0,2.0,29,0.00,,,0.00,0.00,VWS V14.01,2013-04-04 23:47:00,
2013-04-04 19:48:00,54.5,23.7,29.99,NNW,348,1.0,4.0,30,0.00,,,0.00,0.00,VWS V14.01,2013-04-04 23:48:00,
2013-04-04 19:52:00,54.3,23.5,29.99,NNW,348,0.0,0.0,30,0.00,,,0.00,0.00,VWS V14.01,2013-04-04 23:52:00,
2013-04-04 19:53:00,54.2,23.5,29.99,NNW,348,0.0,1.0,30,0.00,,,0.00,0.00,VWS V14.01,2013-04-04 23:53:00,
2013-04-04 19:57:00,53.9,24.0,29.99,NNW,348,0.0,0.0,31,0.00,,,0.00,0.00,VWS V14.01,2013-04-04 23:57:00,
2013-04-04 19:58:00,53.8,23.9,29.99,NNW,348,0.0,1.0,31,0.00,,,0.00,0.00,VWS V14.01,2013-04-04 23:58:00,
2013-04-04 20:02:00,53.5,23.6,29.99,NNW,348,1.0,1.0,31,0.00,,,0.00,0.00,VWS V14.01,2013-04-05 00:02:00,
2013-04-04 20:03:00,53.4,23.5,29.99,NNW,348,0.0,1.0,31,0.00,,,0.00,0.00,VWS V14.01,2013-04-05 00:03:00,
2013-04-04 20:04:00,53.3,24.2,29.99,NNW,348,1.0,2.0,32,0.00,,,0.00,0.00,VWS V14.01,2013-04-05 00:04:00,
2013-04-04 20:07:00,53.1,24.0,29.99,NNW,348,1.0,3.0,32,0.00,,,0.00,0.00,VWS V14.01,2013-04-05 00:07:00,
2013-04-04 20:08:00,53.0,24.0,29.99,NNW,348,1.0,3.0,32,0.00,,,0.00,0.00,VWS V14.01,2013-04-05 00:08:00,
2013-04-04 20:09:00,52.9,23.9,29.99,NNW,348,2.0,3.0,32,0.00,,,0.00,0.00,VWS V14.01,2013-04-05 00:09:00,
2013-04-04 20:12:00,52.7,23.7,29.99,NNW,348,0.0,1.0,32,0.00,,,0.00,0.00,VWS V14.01,2013-04-05 00:12:00,
2013-04-04 20:13:00,52.7,23.7,29.99,NNW,348,0.0,1.0,32,0.00,,,0.00,0.00,VWS V14.01,2013-04-05 00:13:00,
2013-04-04 20:14:00,52.6,23.6,29.99,NNW,348,0.0,3.0,32,0.00,,,0.00,0.00,VWS V14.01,2013-04-05 00:14:00,
2013-04-04 20:17:00,52.4,24.2,29.99,NNW,348,0.0,1.0,33,0.00,,,0.00,0.00,VWS V14.01,2013-04-05 00:17:00,
2013-04-04 20:18:00,52.3,24.1,29.99,North,360,5.0,5.0,33,0.00,,,0.00,0.00,VWS V14.01,2013-04-05 00:18:00,
2013-04-04 20:19:00,52.2,24.0,29.99,North,360,1.0,1.0,33,0.00,,,0.00,0.00,VWS V14.01,2013-04-05 00:19:00,
2013-04-04 20:22:00,52.0,23.8,29.99,North,355,3.0,5.0,33,0.00,,,0.00,0.00,VWS V14.01,2013-04-05 00:22:00,
2013-04-04 20:23:00,52.0,23.8,29.99,North,355,0.0,3.0,33,0.00,,,0.00,0.00,VWS V14.01,2013-04-05 00:23:00,
2013-04-04 20:24:00,51.9,24.4,29.99,North,355,0.0,3.0,34,0.00,,,0.00,0.00,VWS V14.01,2013-04-05 00:24:00,
2013-04-04 20:27:00,51.7,24.3,29.99,North,355,0.0,2.0,34,0.00,,,0.00,0.00,VWS V14.01,2013-04-05 00:27:00,
2013-04-04 20:28:00,51.7,24.3,29.99,North,355,0.0,0.0,34,0.00,,,0.00,0.00,VWS V14.01,2013-04-05 00:28:00,
2013-04-04 20:29:00,51.6,24.2,29.99,North,355,0.0,0.0,34,0.00,,,0.00,0.00,VWS V14.01,2013-04-05 00:29:00,
2013-04-04 20:32:00,51.5,24.1,29.99,North,355,1.0,1.0,34,0.00,,,0.00,0.00,VWS V14.01,2013-04-05 00:32:00,
2013-04-04 20:33:00,51.5,24.1,29.99,North,355,1.0,1.0,34,0.00,,,0.00,0.00,VWS V14.01,2013-04-05 00:33:00,
2013-04-04 20:34:00,51.5,24.1,29.99,North,355,1.0,1.0,34,0.00,,,0.00,0.00,VWS V14.01,2013-04-05 00:34:00,
2013-04-04 20:37:00,51.5,24.1,29.99,North,355,1.0,1.0,34,0.00,,,0.00,0.00,VWS V14.01,2013-04-05 00:37:00,
2013-04-04 20:38:00,51.5,24.1,29.99,North,355,1.0,1.0,34,0.00,,,0.00,0.00,VWS V14.01,2013-04-05 00:38:00,
2013-04-04 20:39:00,51.5,24.1,29.99,North,355,1.0,1.0,34,0.00,,,0.00,0.00,VWS V14.01,2013-04-05 00:39:00,
2013-04-04 20:42:00,51.5,24.1,29.99,North,355,1.0,1.0,34,0.00,,,0.00,0.00,VWS V14.01,2013-04-05 00:42:00,
2013-04-04 20:43:00,51.5,24.1,29.99,North,355,1.0,1.0,34,0.00,,,0.00,0.00,VWS V14.01,2013-04-05 00:43:00,
2013-04-04 20:44:00,51.5,24.1,29.99,North,355,1.0,1.0,34,0.00,,,0.00,0.00,VWS V14.01,2013-04-05 00:44:00,
2013-04-04 20:47:00,51.5,24.1,29.99,North,355,1.0,1.0,34,0.00,,,0.00,0.00,VWS V14.01,2013-04-05 00:47:00,
2013-04-04 20:48:00,51.5,24.1,29.99,North,355,1.0,1.0,34,0.00,,,0.00,0.00,VWS V14.01,2013-04-05 00:48:00,
2013-04-04 20:49:00,51.5,24.1,29.99,North,355,1.0,1.0,34,0.00,,,0.00,0.00,VWS V14.01,2013-04-05 00:49:00,
2013-04-04 20:52:00,51.5,24.1,29.99,North,355,1.0,1.0,34,0.00,,,0.00,0.00,VWS V14.01,2013-04-05 00:52:00,
2013-04-04 20:53:00,51.5,24.1,29.99,North,355,1.0,1.0,34,0.00,,,0.00,0.00,VWS V14.01,2013-04-05 00:53:00,
2013-04-04 20:54:00,51.5,24.1,29.99,North,355,1.0,1.0,34,0.00,,,0.00,0.00,VWS V14.01,2013-04-05 00:54:00,
2013-04-04 20:57:00,51.5,24.1,29.99,North,355,1.0,1.0,34,0.00,,,0.00,0.00,VWS V14.01,2013-04-05 00:57:00,
2013-04-04 20:58:00,51.5,24.1,29.99,North,355,1.0,1.0,34,0.00,,,0.00,0.00,VWS V14.01,2013-04-05 00:58:00,
2013-04-04 20:59:00,50.2,24.3,29.99,North,355,0.0,0.0,36,0.00,,,0.00,0.00,VWS V14.01,2013-04-05 00:59:00,
2013-04-04 21:02:00,50.1,24.9,29.99,North,355,0.0,0.0,37,0.00,,,0.00,0.00,VWS V14.01,2013-04-05 01:02:00,
2013-04-04 21:03:00,50.1,25.5,29.99,North,355,0.0,0.0,38,0.00,,,0.00,0.00,VWS V14.01,2013-04-05 01:03:00,
2013-04-04 21:05:00,50.0,24.8,29.99,North,355,0.0,0.0,37,0.00,,,0.00,0.00,VWS V14.01,2013-04-05 01:05:00,
2013-04-04 21:07:00,49.8,24.6,29.99,North,355,0.0,0.0,37,0.00,,,0.00,0.00,VWS V14.01,2013-04-05 01:07:00,
2013-04-04 21:08:00,49.7,24.5,29.99,North,355,0.0,0.0,37,0.00,,,0.00,0.00,VWS V14.01,2013-04-05 01:08:00,
2013-04-04 21:10:00,49.6,23.8,29.99,North,355,0.0,0.0,36,0.00,,,0.00,0.00,VWS V14.01,2013-04-05 01:10:00,
2013-04-04 21:12:00,49.4,24.2,29.99,North,355,0.0,0.0,37,0.00,,,0.00,0.00,VWS V14.01,2013-04-05 01:12:00,
2013-04-04 21:13:00,49.4,24.2,29.99,North,355,0.0,0.0,37,0.00,,,0.00,0.00,VWS V14.01,2013-04-05 01:13:00,
2013-04-04 21:15:00,49.2,24.1,29.99,North,355,0.0,0.0,37,0.00,,,0.00,0.00,VWS V14.01,2013-04-05 01:15:00,
2013-04-04 21:17:00,49.0,25.1,29.99,North,355,0.0,0.0,39,0.00,,,0.00,0.00,VWS V14.01,2013-04-05 01:17:00,
2013-04-04 21:18:00,48.9,25.7,29.99,North,355,0.0,0.0,40,0.00,,,0.00,0.00,VWS V14.01,2013-04-05 01:18:00,
2013-04-04 21:20:00,48.7,26.1,29.99,North,355,0.0,0.0,41,0.00,,,0.00,0.00,VWS V14.01,2013-04-05 01:20:00,
2013-04-04 21:22:00,48.5,25.9,29.99,North,355,0.0,0.0,41,0.00,,,0.00,0.00,VWS V14.01,2013-04-05 01:22:00,
2013-04-04 21:23:00,48.3,25.7,29.99,North,355,0.0,0.0,41,0.00,,,0.00,0.00,VWS V14.01,2013-04-05 01:23:00,
2013-04-04 21:25:00,48.1,24.9,29.99,North,355,0.0,0.0,40,0.00,,,0.00,0.00,VWS V14.01,2013-04-05 01:25:00,
2013-04-04 21:28:00,47.8,25.3,29.98,North,355,0.0,0.0,41,0.00,,,0.00,0.00,VWS V14.01,2013-04-05 01:28:00,
2013-04-04 21:30:00,47.6,26.2,29.98,North,355,0.0,0.0,43,0.00,,,0.00,0.00,VWS V14.01,2013-04-05 01:30:00,
2013-04-04 21:31:00,47.6,26.2,29.99,North,355,0.0,0.0,43,0.00,,,0.00,0.00,VWS V14.01,2013-04-05 01:31:00,
2013-04-04 21:33:00,47.4,26.0,29.99,North,355,0.0,0.0,43,0.00,,,0.00,0.00,VWS V14.01,2013-04-05 01:33:00,
2013-04-04 21:35:00,47.2,25.9,29.99,North,355,0.0,0.0,43,0.00,,,0.00,0.00,VWS V14.01,2013-04-05 01:35:00,
2013-04-04 21:36:00,47.1,25.8,29.99,North,355,0.0,0.0,43,0.00,,,0.00,0.00,VWS V14.01,2013-04-05 01:36:00,
2013-04-04 21:38:00,46.9,26.1,29.99,North,355,0.0,0.0,44,0.00,,,0.00,0.00,VWS V14.01,2013-04-05 01:38:00,
2013-04-04 21:40:00,46.7,26.0,29.99,North,355,0.0,0.0,44,0.00,,,0.00,0.00,VWS V14.01,2013-04-05 01:40:00,
2013-04-04 21:41:00,46.6,26.4,29.99,North,355,0.0,0.0,45,0.00,,,0.00,0.00,VWS V14.01,2013-04-05 01:41:00,
2013-04-04 21:43:00,46.4,26.2,29.99,North,355,0.0,0.0,45,0.00,,,0.00,0.00,VWS V14.01,2013-04-05 01:43:00,
2013-04-04 21:45:00,46.2,26.6,29.99,North,355,0.0,0.0,46,0.00,,,0.00,0.00,VWS V14.01,2013-04-05 01:45:00,
2013-04-04 21:46:00,46.2,26.6,29.99,North,355,0.0,0.0,46,0.00,,,0.00,0.00,VWS V14.01,2013-04-05 01:46:00,
2013-04-04 21:48:00,46.0,25.3,29.99,North,355,0.0,0.0,44,0.00,,,0.00,0.00,VWS V14.01,2013-04-05 01:48:00,
2013-04-04 21:49:00,45.9,25.8,29.99,North,355,0.0,0.0,45,0.00,,,0.00,0.00,VWS V14.01,2013-04-05 01:49:00,
2013-04-04 21:50:00,45.7,25.0,29.99,North,355,0.0,0.0,44,0.00,,,0.00,0.00,VWS V14.01,2013-04-05 01:50:00,
2013-04-04 21:51:00,45.7,25.0,29.99,North,355,0.0,0.0,44,0.00,,,0.00,0.00,VWS V14.01,2013-04-05 01:51:00,
2013-04-04 21:53:00,45.5,25.4,29.99,North,355,0.0,0.0,45,0.00,,,0.00,0.00,VWS V14.01,2013-04-05 01:53:00,
2013-04-04 21:54:00,45.4,25.3,29.99,North,355,0.0,0.0,45,0.00,,,0.00,0.00,VWS V14.01,2013-04-05 01:54:00,
2013-04-04 21:55:00,45.3,25.2,29.99,North,355,0.0,0.0,45,0.00,,,0.00,0.00,VWS V14.01,2013-04-05 01:55:00,
2013-04-04 21:56:00,45.3,25.2,29.99,North,355,0.0,0.0,45,0.00,,,0.00,0.00,VWS V14.01,2013-04-05 01:56:00,
2013-04-04 21:58:00,45.1,25.6,29.99,North,355,0.0,0.0,46,0.00,,,0.00,0.00,VWS V14.01,2013-04-05 01:58:00,
2013-04-04 21:59:00,45.0,25.5,29.99,North,355,0.0,0.0,46,0.00,,,0.00,0.00,VWS V14.01,2013-04-05 01:59:00,
2013-04-04 22:00:00,44.9,26.4,29.99,North,355,0.0,0.0,48,0.00,,,0.00,0.00,VWS V14.01,2013-04-05 02:00:00,
2013-04-04 22:02:00,44.8,26.3,29.99,North,355,0.0,0.0,48,0.00,,,0.00,0.00,VWS V14.01,2013-04-05 02:02:00,
2013-04-04 22:03:00,44.6,26.1,29.99,North,355,0.0,0.0,48,0.00,,,0.00,0.00,VWS V14.01,2013-04-05 02:03:00,
2013-04-04 22:04:00,44.5,26.5,29.99,North,355,0.0,0.0,49,0.00,,,0.00,0.00,VWS V14.01,2013-04-05 02:04:00,
2013-04-04 22:06:00,44.3,26.4,29.99,North,355,0.0,0.0,49,0.00,,,0.00,0.00,VWS V14.01,2013-04-05 02:06:00,
2013-04-04 22:07:00,44.3,26.4,29.99,North,355,0.0,0.0,49,0.00,,,0.00,0.00,VWS V14.01,2013-04-05 02:07:00,
2013-04-04 22:08:00,44.2,26.8,29.99,North,355,0.0,0.0,50,0.00,,,0.00,0.00,VWS V14.01,2013-04-05 02:08:00,
2013-04-04 22:10:00,44.0,27.0,29.99,North,355,0.0,0.0,51,0.00,,,0.00,0.00,VWS V14.01,2013-04-05 02:10:00,
2013-04-04 22:12:00,43.9,27.0,29.99,North,355,0.0,0.0,51,0.00,,,0.00,0.00,VWS V14.01,2013-04-05 02:12:00,
2013-04-04 22:13:00,43.8,26.9,29.99,North,355,0.0,0.0,51,0.00,,,0.00,0.00,VWS V14.01,2013-04-05 02:13:00,
2013-04-04 22:15:00,43.6,27.1,29.99,North,355,0.0,0.0,52,0.00,,,0.00,0.00,VWS V14.01,2013-04-05 02:15:00,
2013-04-04 22:17:00,43.5,26.6,29.99,North,355,0.0,0.0,51,0.00,,,0.00,0.00,VWS V14.01,2013-04-05 02:17:00,
2013-04-04 22:18:00,43.4,26.5,29.99,North,355,0.0,0.0,51,0.00,,,0.00,0.00,VWS V14.01,2013-04-05 02:18:00,
2013-04-04 22:20:00,43.3,25.9,29.99,North,355,0.0,0.0,50,0.00,,,0.00,0.00,VWS V14.01,2013-04-05 02:20:00,
2013-04-04 22:22:00,43.2,25.4,29.99,North,355,0.0,0.0,49,0.00,,,0.00,0.00,VWS V14.01,2013-04-05 02:22:00,
2013-04-04 22:23:00,43.1,25.3,29.99,North,355,0.0,0.0,49,0.00,,,0.00,0.00,VWS V14.01,2013-04-05 02:23:00,
2013-04-04 22:25:00,43.0,25.2,29.99,North,355,0.0,0.0,49,0.00,,,0.00,0.00,VWS V14.01,2013-04-05 02:25:00,
2013-04-04 22:27:00,42.9,24.6,29.99,North,355,0.0,0.0,48,0.00,,,0.00,0.00,VWS V14.01,2013-04-05 02:27:00,
2013-04-04 22:28:00,42.8,24.5,29.99,North,355,0.0,0.0,48,0.00,,,0.00,0.00,VWS V14.01,2013-04-05 02:28:00,
2013-04-04 22:30:00,42.7,25.4,29.99,North,355,0.0,0.0,50,0.00,,,0.00,0.00,VWS V14.01,2013-04-05 02:30:00,
2013-04-04 22:32:00,42.6,25.3,29.98,North,355,0.0,0.0,50,0.00,,,0.00,0.00,VWS V14.01,2013-04-05 02:32:00,
2013-04-04 22:33:00,42.5,25.7,29.98,North,355,0.0,0.0,51,0.00,,,0.00,0.00,VWS V14.01,2013-04-05 02:33:00,
2013-04-04 22:36:00,42.3,25.9,29.99,North,355,0.0,0.0,52,0.00,,,0.00,0.00,VWS V14.01,2013-04-05 02:36:00,
2013-04-04 22:37:00,42.2,25.9,29.98,North,355,0.0,0.0,52,0.00,,,0.00,0.00,VWS V14.01,2013-04-05 02:37:00,
2013-04-04 22:39:00,42.1,26.2,29.98,North,355,0.0,0.0,53,0.00,,,0.00,0.00,VWS V14.01,2013-04-05 02:39:00,
2013-04-04 22:41:00,41.9,26.5,29.99,North,355,0.0,0.0,54,0.00,,,0.00,0.00,VWS V14.01,2013-04-05 02:41:00,
2013-04-04 22:42:00,41.8,26.4,29.98,North,355,0.0,0.0,54,0.00,,,0.00,0.00,VWS V14.01,2013-04-05 02:42:00,
2013-04-04 22:44:00,41.7,26.3,29.98,North,355,0.0,0.0,54,0.00,,,0.00,0.00,VWS V14.01,2013-04-05 02:44:00,
2013-04-04 22:46:00,41.6,26.2,29.98,North,355,0.0,0.0,54,0.00,,,0.00,0.00,VWS V14.01,2013-04-05 02:46:00,
2013-04-04 22:47:00,41.6,26.2,29.98,North,355,0.0,0.0,54,0.00,,,0.00,0.00,VWS V14.01,2013-04-05 02:47:00,
2013-04-04 22:49:00,41.4,26.0,29.98,North,355,0.0,0.0,54,0.00,,,0.00,0.00,VWS V14.01,2013-04-05 02:49:00,
2013-04-04 22:51:00,41.3,26.4,29.98,North,355,0.0,0.0,55,0.00,,,0.00,0.00,VWS V14.01,2013-04-05 02:51:00,
2013-04-04 22:52:00,41.3,26.8,29.98,North,355,0.0,0.0,56,0.00,,,0.00,0.00,VWS V14.01,2013-04-05 02:52:00,
2013-04-04 22:54:00,41.1,26.6,29.98,North,355,0.0,0.0,56,0.00,,,0.00,0.00,VWS V14.01,2013-04-05 02:54:00,
2013-04-04 22:56:00,41.0,26.5,29.98,North,355,0.0,0.0,56,0.00,,,0.00,0.00,VWS V14.01,2013-04-05 02:56:00,
2013-04-04 22:57:00,40.9,26.4,29.98,North,355,0.0,0.0,56,0.00,,,0.00,0.00,VWS V14.01,2013-04-05 02:57:00,
2013-04-04 22:58:00,40.9,26.4,29.98,North,355,0.0,0.0,56,0.00,,,0.00,0.00,VWS V14.01,2013-04-05 02:58:00,
2013-04-04 22:59:00,40.8,26.8,29.98,North,355,0.0,0.0,57,0.00,,,0.00,0.00,VWS V14.01,2013-04-05 02:59:00,
2013-04-04 23:01:00,40.7,27.1,29.98,North,355,0.0,0.0,58,0.00,,,0.00,0.00,VWS V14.01,2013-04-05 03:01:00,
2013-04-04 23:03:00,40.6,27.0,29.98,North,355,0.0,0.0,58,0.00,,,0.00,0.00,VWS V14.01,2013-04-05 03:03:00,
2013-04-04 23:04:00,40.5,26.9,29.98,North,355,0.0,0.0,58,0.00,,,0.00,0.00,VWS V14.01,2013-04-05 03:04:00,
2013-04-04 23:07:00,40.3,27.1,29.98,North,355,0.0,0.0,59,0.00,,,0.00,0.00,VWS V14.01,2013-04-05 03:07:00,
2013-04-04 23:08:00,40.3,27.1,29.98,North,355,0.0,0.0,59,0.00,,,0.00,0.00,VWS V14.01,2013-04-05 03:08:00,
2013-04-04 23:09:00,40.2,27.0,29.98,North,355,0.0,0.0,59,0.00,,,0.00,0.00,VWS V14.01,2013-04-05 03:09:00,
2013-04-04 23:12:00,40.0,26.8,29.98,North,355,0.0,0.0,59,0.00,,,0.00,0.00,VWS V14.01,2013-04-05 03:12:00,
2013-04-04 23:13:00,40.0,26.8,29.98,North,355,0.0,0.0,59,0.00,,,0.00,0.00,VWS V14.01,2013-04-05 03:13:00,
2013-04-04 23:14:00,39.9,26.8,29.98,North,355,0.0,0.0,59,0.00,,,0.00,0.00,VWS V14.01,2013-04-05 03:14:00,
2013-04-04 23:17:00,39.7,26.6,29.98,North,355,0.0,0.0,59,0.00,,,0.00,0.00,VWS V14.01,2013-04-05 03:17:00,
2013-04-04 23:18:00,39.7,26.6,29.98,North,355,0.0,0.0,59,0.00,,,0.00,0.00,VWS V14.01,2013-04-05 03:18:00,
2013-04-04 23:20:00,39.6,26.5,29.98,North,355,0.0,0.0,59,0.00,,,0.00,0.00,VWS V14.01,2013-04-05 03:20:00,
2013-04-04 23:22:00,39.5,26.8,29.98,North,355,0.0,0.0,60,0.00,,,0.00,0.00,VWS V14.01,2013-04-05 03:22:00,
2013-04-04 23:23:00,39.5,27.2,29.98,North,355,0.0,0.0,61,0.00,,,0.00,0.00,VWS V14.01,2013-04-05 03:23:00,
2013-04-04 23:25:00,39.4,26.7,29.98,North,355,0.0,0.0,60,0.00,,,0.00,0.00,VWS V14.01,2013-04-05 03:25:00,
2013-04-04 23:27:00,39.4,25.9,29.98,North,355,0.0,0.0,58,0.00,,,0.00,0.00,VWS V14.01,2013-04-05 03:27:00,
2013-04-04 23:28:00,39.3,26.2,29.98,North,355,0.0,0.0,59,0.00,,,0.00,0.00,VWS V14.01,2013-04-05 03:28:00,
2013-04-04 23:30:00,39.3,26.2,29.98,North,355,0.0,0.0,59,0.00,,,0.00,0.00,VWS V14.01,2013-04-05 03:30:00,
2013-04-04 23:32:00,39.3,26.2,29.98,North,355,0.0,0.0,59,0.00,,,0.00,0.00,VWS V14.01,2013-04-05 03:32:00,
2013-04-04 23:33:00,39.2,25.7,29.98,North,355,0.0,0.0,58,0.00,,,0.00,0.00,VWS V14.01,2013-04-05 03:33:00,
2013-04-04 23:35:00,39.2,26.1,29.98,North,355,0.0,0.0,59,0.00,,,0.00,0.00,VWS V14.01,2013-04-05 03:35:00,
2013-04-04 23:37:00,39.1,26.4,29.98,North,355,0.0,0.0,60,0.00,,,0.00,0.00,VWS V14.01,2013-04-05 03:37:00,
2013-04-04 23:38:00,39.1,26.4,29.98,North,355,0.0,0.0,60,0.00,,,0.00,0.00,VWS V14.01,2013-04-05 03:38:00,
2013-04-04 23:40:00,39.0,26.7,29.98,North,355,0.0,0.0,61,0.00,,,0.00,0.00,VWS V14.01,2013-04-05 03:40:00,
2013-04-04 23:42:00,38.9,26.6,29.97,North,355,0.0,0.0,61,0.00,,,0.00,0.00,VWS V14.01,2013-04-05 03:42:00,
2013-04-04 23:43:00,38.9,27.0,29.97,North,355,0.0,0.0,62,0.00,,,0.00,0.00,VWS V14.01,2013-04-05 03:43:00,
2013-04-04 23:45:00,38.8,26.9,29.97,North,355,0.0,0.0,62,0.00,,,0.00,0.00,VWS V14.01,2013-04-05 03:45:00,
2013-04-04 23:47:00,38.7,26.8,29.98,North,355,0.0,0.0,62,0.00,,,0.00,0.00,VWS V14.01,2013-04-05 03:47:00,
2013-04-04 23:48:00,38.7,26.8,29.98,North,355,0.0,0.0,62,0.00,,,0.00,0.00,VWS V14.01,2013-04-05 03:48:00,
2013-04-04 23:51:00,38.6,26.7,29.97,North,355,0.0,0.0,62,0.00,,,0.00,0.00,VWS V14.01,2013-04-05 03:51:00,
2013-04-04 23:52:00,38.5,26.2,29.97,North,355,0.0,0.0,61,0.00,,,0.00,0.00,VWS V14.01,2013-04-05 03:52:00,
2013-04-04 23:53:00,38.4,26.1,29.97,North,355,0.0,0.0,61,0.00,,,0.00,0.00,VWS V14.01,2013-04-05 03:53:00,
2013-04-04 23:56:00,38.3,26.4,29.97,North,355,0.0,0.0,62,0.00,,,0.00,0.00,VWS V14.01,2013-04-05 03:56:00,
2013-04-04 23:57:00,38.2,26.7,29.98,North,355,0.0,0.0,63,0.00,,,0.00,0.00,VWS V14.01,2013-04-05 03:57:00,
2013-04-04 23:58:00,38.1,26.6,29.98,North,355,0.0,0.0,63,0.00,,,0.00,0.00,VWS V14.01,2013-04-05 03:58:00,